<?xml version="1.0" encoding="UTF-8"?>
<gpx xmlns="http://www.topografix.com/GPX/1/1" xmlns:xsi="http://www.w3.org/2001/XMLSchema-instance" version="1.1" xsi:schemaLocation="http://www.topografix.com/GPX/1/1 http://www.topografix.com/GPX/1/1/gpx.xsd">
  <metadata>
    <name>1066 Triathlon - Standard Aquabike</name>
  </metadata>
  <trk>
    <name>1066 Triathlon - Standard Aquabike</name>
    <trkseg>
      <trkpt lat="50.837959" lon="0.475951">
        <ele>7.707965</ele>
        <time>2023-09-10T07:00:00.000Z</time>
      </trkpt>
      <trkpt lat="50.837928" lon="0.475639">
        <ele>7.707961</ele>
        <time>2023-09-10T07:00:02.000Z</time>
      </trkpt>
      <trkpt lat="50.83787" lon="0.475111">
        <ele>7.70797</ele>
        <time>2023-09-10T07:00:06.000Z</time>
      </trkpt>
      <trkpt lat="50.83782" lon="0.4748">
        <ele>7.707958</ele>
        <time>2023-09-10T07:00:08.000Z</time>
      </trkpt>
      <trkpt lat="50.837805" lon="0.474714">
        <ele>7.707968</ele>
        <time>2023-09-10T07:00:09.000Z</time>
      </trkpt>
      <trkpt lat="50.837785" lon="0.474205">
        <ele>7.856494</ele>
        <time>2023-09-10T07:00:13.000Z</time>
      </trkpt>
      <trkpt lat="50.837776" lon="0.47409">
        <ele>7.913084</ele>
        <time>2023-09-10T07:00:14.000Z</time>
      </trkpt>
      <trkpt lat="50.837793" lon="0.473793">
        <ele>8.040812</ele>
        <time>2023-09-10T07:00:16.000Z</time>
      </trkpt>
      <trkpt lat="50.837815" lon="0.473538">
        <ele>8.146855</ele>
        <time>2023-09-10T07:00:18.000Z</time>
      </trkpt>
      <trkpt lat="50.837855" lon="0.473156">
        <ele>8.314361</ele>
        <time>2023-09-10T07:00:21.000Z</time>
      </trkpt>
      <trkpt lat="50.837858" lon="0.472621">
        <ele>8.537699</ele>
        <time>2023-09-10T07:00:25.000Z</time>
      </trkpt>
      <trkpt lat="50.83785" lon="0.472479">
        <ele>8.600686</ele>
        <time>2023-09-10T07:00:26.000Z</time>
      </trkpt>
      <trkpt lat="50.837856" lon="0.472277">
        <ele>8.684682</ele>
        <time>2023-09-10T07:00:27.000Z</time>
      </trkpt>
      <trkpt lat="50.837854" lon="0.471753">
        <ele>8.916499</ele>
        <time>2023-09-10T07:00:31.000Z</time>
      </trkpt>
      <trkpt lat="50.837856" lon="0.471609">
        <ele>8.765292</ele>
        <time>2023-09-10T07:00:32.000Z</time>
      </trkpt>
      <trkpt lat="50.837865" lon="0.471224">
        <ele>8.209965</ele>
        <time>2023-09-10T07:00:35.000Z</time>
      </trkpt>
      <trkpt lat="50.837869" lon="0.471091">
        <ele>8.006296</ele>
        <time>2023-09-10T07:00:36.000Z</time>
      </trkpt>
      <trkpt lat="50.837877" lon="0.470722">
        <ele>7.474404</ele>
        <time>2023-09-10T07:00:39.000Z</time>
      </trkpt>
      <trkpt lat="50.837868" lon="0.470687">
        <ele>7.430396</ele>
        <time>2023-09-10T07:00:39.000Z</time>
      </trkpt>
      <trkpt lat="50.837844" lon="0.470407">
        <ele>7.00795</ele>
        <time>2023-09-10T07:00:41.000Z</time>
      </trkpt>
      <trkpt lat="50.837802" lon="0.470351">
        <ele>6.897871</ele>
        <time>2023-09-10T07:00:42.000Z</time>
      </trkpt>
      <trkpt lat="50.837775" lon="0.470325">
        <ele>6.815089</ele>
        <time>2023-09-10T07:00:42.000Z</time>
      </trkpt>
      <trkpt lat="50.837623" lon="0.470161">
        <ele>6.363594</ele>
        <time>2023-09-10T07:00:44.000Z</time>
      </trkpt>
      <trkpt lat="50.837496" lon="0.470053">
        <ele>6.061874</ele>
        <time>2023-09-10T07:00:46.000Z</time>
      </trkpt>
      <trkpt lat="50.837282" lon="0.46976">
        <ele>5.388947</ele>
        <time>2023-09-10T07:00:49.000Z</time>
      </trkpt>
      <trkpt lat="50.83705" lon="0.469354">
        <ele>4.674118</ele>
        <time>2023-09-10T07:00:53.000Z</time>
      </trkpt>
      <trkpt lat="50.836871" lon="0.468801">
        <ele>4.246951</ele>
        <time>2023-09-10T07:00:57.000Z</time>
      </trkpt>
      <trkpt lat="50.836791" lon="0.468372">
        <ele>3.927901</ele>
        <time>2023-09-10T07:01:00.000Z</time>
      </trkpt>
      <trkpt lat="50.836753" lon="0.467914">
        <ele>3.617888</ele>
        <time>2023-09-10T07:01:03.000Z</time>
      </trkpt>
      <trkpt lat="50.836607" lon="0.466322">
        <ele>2.817297</ele>
        <time>2023-09-10T07:01:14.000Z</time>
      </trkpt>
      <trkpt lat="50.836594" lon="0.466195">
        <ele>2.834351</ele>
        <time>2023-09-10T07:01:15.000Z</time>
      </trkpt>
      <trkpt lat="50.836556" lon="0.465821">
        <ele>2.880164</ele>
        <time>2023-09-10T07:01:18.000Z</time>
      </trkpt>
      <trkpt lat="50.836548" lon="0.465664">
        <ele>2.899408</ele>
        <time>2023-09-10T07:01:19.000Z</time>
      </trkpt>
      <trkpt lat="50.836372" lon="0.463882">
        <ele>3.119286</ele>
        <time>2023-09-10T07:01:32.000Z</time>
      </trkpt>
      <trkpt lat="50.836297" lon="0.463021">
        <ele>3.107122</ele>
        <time>2023-09-10T07:01:38.000Z</time>
      </trkpt>
      <trkpt lat="50.836231" lon="0.462449">
        <ele>3.09915</ele>
        <time>2023-09-10T07:01:42.000Z</time>
      </trkpt>
      <trkpt lat="50.836099" lon="0.460961">
        <ele>3.119789</ele>
        <time>2023-09-10T07:01:53.000Z</time>
      </trkpt>
      <trkpt lat="50.835986" lon="0.459743">
        <ele>3.502581</ele>
        <time>2023-09-10T07:02:02.000Z</time>
      </trkpt>
      <trkpt lat="50.835903" lon="0.458848">
        <ele>3.779015</ele>
        <time>2023-09-10T07:02:08.000Z</time>
      </trkpt>
      <trkpt lat="50.835874" lon="0.45864">
        <ele>3.847759</ele>
        <time>2023-09-10T07:02:09.000Z</time>
      </trkpt>
      <trkpt lat="50.835737" lon="0.457159">
        <ele>5.372093</ele>
        <time>2023-09-10T07:02:20.000Z</time>
      </trkpt>
      <trkpt lat="50.835687" lon="0.456643">
        <ele>6.00722</ele>
        <time>2023-09-10T07:02:24.000Z</time>
      </trkpt>
      <trkpt lat="50.835685" lon="0.456418">
        <ele>6.296345</ele>
        <time>2023-09-10T07:02:26.000Z</time>
      </trkpt>
      <trkpt lat="50.835706" lon="0.456198">
        <ele>6.577715</ele>
        <time>2023-09-10T07:02:28.000Z</time>
      </trkpt>
      <trkpt lat="50.835851" lon="0.455725">
        <ele>7.216605</ele>
        <time>2023-09-10T07:02:32.000Z</time>
      </trkpt>
      <trkpt lat="50.835746" lon="0.455572">
        <ele>7.501896</ele>
        <time>2023-09-10T07:02:34.000Z</time>
      </trkpt>
      <trkpt lat="50.835724" lon="0.455468">
        <ele>7.625653</ele>
        <time>2023-09-10T07:02:35.000Z</time>
      </trkpt>
      <trkpt lat="50.835725" lon="0.454887">
        <ele>8.30948</ele>
        <time>2023-09-10T07:02:39.000Z</time>
      </trkpt>
      <trkpt lat="50.835657" lon="0.453518">
        <ele>9.940317</ele>
        <time>2023-09-10T07:02:49.000Z</time>
      </trkpt>
      <trkpt lat="50.835683" lon="0.452185">
        <ele>11.128499</ele>
        <time>2023-09-10T07:02:58.000Z</time>
      </trkpt>
      <trkpt lat="50.835653" lon="0.451308">
        <ele>11.55745</ele>
        <time>2023-09-10T07:03:04.000Z</time>
      </trkpt>
      <trkpt lat="50.835618" lon="0.450618">
        <ele>11.902102</ele>
        <time>2023-09-10T07:03:09.000Z</time>
      </trkpt>
      <trkpt lat="50.835326" lon="0.44841">
        <ele>11.872921</ele>
        <time>2023-09-10T07:03:25.000Z</time>
      </trkpt>
      <trkpt lat="50.835283" lon="0.447781">
        <ele>11.711459</ele>
        <time>2023-09-10T07:03:29.000Z</time>
      </trkpt>
      <trkpt lat="50.835297" lon="0.447189">
        <ele>11.562701</ele>
        <time>2023-09-10T07:03:33.000Z</time>
      </trkpt>
      <trkpt lat="50.83534" lon="0.446671">
        <ele>11.379525</ele>
        <time>2023-09-10T07:03:37.000Z</time>
      </trkpt>
      <trkpt lat="50.835435" lon="0.446211">
        <ele>11.199517</ele>
        <time>2023-09-10T07:03:40.000Z</time>
      </trkpt>
      <trkpt lat="50.83559" lon="0.445835">
        <ele>11.034379</ele>
        <time>2023-09-10T07:03:43.000Z</time>
      </trkpt>
      <trkpt lat="50.835612" lon="0.445741">
        <ele>10.9986</ele>
        <time>2023-09-10T07:03:44.000Z</time>
      </trkpt>
      <trkpt lat="50.835728" lon="0.445531">
        <ele>10.895984</ele>
        <time>2023-09-10T07:03:46.000Z</time>
      </trkpt>
      <trkpt lat="50.835863" lon="0.44532">
        <ele>10.780432</ele>
        <time>2023-09-10T07:03:48.000Z</time>
      </trkpt>
      <trkpt lat="50.836081" lon="0.445191">
        <ele>10.642338</ele>
        <time>2023-09-10T07:03:51.000Z</time>
      </trkpt>
      <trkpt lat="50.836474" lon="0.445159">
        <ele>10.480704</ele>
        <time>2023-09-10T07:03:55.000Z</time>
      </trkpt>
      <trkpt lat="50.836414" lon="0.444753">
        <ele>10.489022</ele>
        <time>2023-09-10T07:03:58.000Z</time>
      </trkpt>
      <trkpt lat="50.836242" lon="0.443914">
        <ele>10.507189</ele>
        <time>2023-09-10T07:04:04.000Z</time>
      </trkpt>
      <trkpt lat="50.835097" lon="0.438105">
        <ele>10.765963</ele>
        <time>2023-09-10T07:04:47.000Z</time>
      </trkpt>
      <trkpt lat="50.834061" lon="0.432818">
        <ele>9.455977</ele>
        <time>2023-09-10T07:05:26.000Z</time>
      </trkpt>
      <trkpt lat="50.833978" lon="0.432432">
        <ele>9.321483</ele>
        <time>2023-09-10T07:05:29.000Z</time>
      </trkpt>
      <trkpt lat="50.833713" lon="0.43106">
        <ele>8.510374</ele>
        <time>2023-09-10T07:05:39.000Z</time>
      </trkpt>
      <trkpt lat="50.833685" lon="0.430925">
        <ele>8.38933</ele>
        <time>2023-09-10T07:05:40.000Z</time>
      </trkpt>
      <trkpt lat="50.833644" lon="0.430732">
        <ele>8.222401</ele>
        <time>2023-09-10T07:05:41.000Z</time>
      </trkpt>
      <trkpt lat="50.833551" lon="0.430284">
        <ele>7.846522</ele>
        <time>2023-09-10T07:05:44.000Z</time>
      </trkpt>
      <trkpt lat="50.833398" lon="0.429447">
        <ele>7.132898</ele>
        <time>2023-09-10T07:05:50.000Z</time>
      </trkpt>
      <trkpt lat="50.833344" lon="0.429303">
        <ele>7.001617</ele>
        <time>2023-09-10T07:05:51.000Z</time>
      </trkpt>
      <trkpt lat="50.832983" lon="0.428829">
        <ele>6.497188</ele>
        <time>2023-09-10T07:05:56.000Z</time>
      </trkpt>
      <trkpt lat="50.832898" lon="0.428601">
        <ele>6.349236</ele>
        <time>2023-09-10T07:05:58.000Z</time>
      </trkpt>
      <trkpt lat="50.832783" lon="0.427952">
        <ele>5.958612</ele>
        <time>2023-09-10T07:06:03.000Z</time>
      </trkpt>
      <trkpt lat="50.832733" lon="0.427708">
        <ele>5.801701</ele>
        <time>2023-09-10T07:06:05.000Z</time>
      </trkpt>
      <trkpt lat="50.832698" lon="0.42755">
        <ele>5.712259</ele>
        <time>2023-09-10T07:06:06.000Z</time>
      </trkpt>
      <trkpt lat="50.832726" lon="0.42743">
        <ele>5.630872</ele>
        <time>2023-09-10T07:06:07.000Z</time>
      </trkpt>
      <trkpt lat="50.83276" lon="0.427349">
        <ele>5.573728</ele>
        <time>2023-09-10T07:06:08.000Z</time>
      </trkpt>
      <trkpt lat="50.832822" lon="0.427355">
        <ele>5.52369</ele>
        <time>2023-09-10T07:06:09.000Z</time>
      </trkpt>
      <trkpt lat="50.832864" lon="0.427359">
        <ele>5.476145</ele>
        <time>2023-09-10T07:06:09.000Z</time>
      </trkpt>
      <trkpt lat="50.8333" lon="0.427475">
        <ele>5.109274</ele>
        <time>2023-09-10T07:06:14.000Z</time>
      </trkpt>
      <trkpt lat="50.833295" lon="0.427299">
        <ele>5.12533</ele>
        <time>2023-09-10T07:06:15.000Z</time>
      </trkpt>
      <trkpt lat="50.83328" lon="0.427139">
        <ele>5.14001</ele>
        <time>2023-09-10T07:06:16.000Z</time>
      </trkpt>
      <trkpt lat="50.833132" lon="0.426327">
        <ele>5.214215</ele>
        <time>2023-09-10T07:06:22.000Z</time>
      </trkpt>
      <trkpt lat="50.832846" lon="0.424567">
        <ele>5.282131</ele>
        <time>2023-09-10T07:06:35.000Z</time>
      </trkpt>
      <trkpt lat="50.832557" lon="0.423329">
        <ele>4.820723</ele>
        <time>2023-09-10T07:06:44.000Z</time>
      </trkpt>
      <trkpt lat="50.831812" lon="0.41942">
        <ele>2.475421</ele>
        <time>2023-09-10T07:07:13.000Z</time>
      </trkpt>
      <trkpt lat="50.831633" lon="0.418366">
        <ele>2.074013</ele>
        <time>2023-09-10T07:07:21.000Z</time>
      </trkpt>
      <trkpt lat="50.830989" lon="0.415325">
        <ele>1.392954</ele>
        <time>2023-09-10T07:07:44.000Z</time>
      </trkpt>
      <trkpt lat="50.8307" lon="0.413873">
        <ele>1.329687</ele>
        <time>2023-09-10T07:07:55.000Z</time>
      </trkpt>
      <trkpt lat="50.830326" lon="0.411972">
        <ele>1.517901</ele>
        <time>2023-09-10T07:08:09.000Z</time>
      </trkpt>
      <trkpt lat="50.830094" lon="0.410691">
        <ele>1.498466</ele>
        <time>2023-09-10T07:08:18.000Z</time>
      </trkpt>
      <trkpt lat="50.830034" lon="0.410486">
        <ele>1.46091</ele>
        <time>2023-09-10T07:08:20.000Z</time>
      </trkpt>
      <trkpt lat="50.829475" lon="0.408832">
        <ele>1.113704</ele>
        <time>2023-09-10T07:08:33.000Z</time>
      </trkpt>
      <trkpt lat="50.829074" lon="0.407454">
        <ele>1.018533</ele>
        <time>2023-09-10T07:08:44.000Z</time>
      </trkpt>
      <trkpt lat="50.82903" lon="0.40713">
        <ele>1.004382</ele>
        <time>2023-09-10T07:08:46.000Z</time>
      </trkpt>
      <trkpt lat="50.829021" lon="0.40695">
        <ele>0.997</ele>
        <time>2023-09-10T07:08:47.000Z</time>
      </trkpt>
      <trkpt lat="50.829063" lon="0.406787">
        <ele>0.99023</ele>
        <time>2023-09-10T07:08:48.000Z</time>
      </trkpt>
      <trkpt lat="50.829297" lon="0.406157">
        <ele>0.96082</ele>
        <time>2023-09-10T07:08:53.000Z</time>
      </trkpt>
      <trkpt lat="50.829313" lon="0.406108">
        <ele>0.958449</ele>
        <time>2023-09-10T07:08:53.000Z</time>
      </trkpt>
      <trkpt lat="50.829653" lon="0.405466">
        <ele>1.065901</ele>
        <time>2023-09-10T07:08:59.000Z</time>
      </trkpt>
      <trkpt lat="50.83006" lon="0.404877">
        <ele>1.193926</ele>
        <time>2023-09-10T07:09:05.000Z</time>
      </trkpt>
      <trkpt lat="50.830207" lon="0.404532">
        <ele>1.259261</ele>
        <time>2023-09-10T07:09:08.000Z</time>
      </trkpt>
      <trkpt lat="50.830321" lon="0.403881">
        <ele>1.358375</ele>
        <time>2023-09-10T07:09:13.000Z</time>
      </trkpt>
      <trkpt lat="50.830389" lon="0.403668">
        <ele>1.37897</ele>
        <time>2023-09-10T07:09:15.000Z</time>
      </trkpt>
      <trkpt lat="50.830755" lon="0.402796">
        <ele>1.359317</ele>
        <time>2023-09-10T07:09:22.000Z</time>
      </trkpt>
      <trkpt lat="50.830838" lon="0.402441">
        <ele>1.352363</ele>
        <time>2023-09-10T07:09:25.000Z</time>
      </trkpt>
      <trkpt lat="50.830866" lon="0.402096">
        <ele>1.34591</ele>
        <time>2023-09-10T07:09:27.000Z</time>
      </trkpt>
      <trkpt lat="50.830896" lon="0.401183">
        <ele>1.328915</ele>
        <time>2023-09-10T07:09:33.000Z</time>
      </trkpt>
      <trkpt lat="50.830949" lon="0.400073">
        <ele>1.293387</ele>
        <time>2023-09-10T07:09:41.000Z</time>
      </trkpt>
      <trkpt lat="50.830983" lon="0.399118">
        <ele>1.262095</ele>
        <time>2023-09-10T07:09:48.000Z</time>
      </trkpt>
      <trkpt lat="50.831095" lon="0.397754">
        <ele>1.2294</ele>
        <time>2023-09-10T07:09:58.000Z</time>
      </trkpt>
      <trkpt lat="50.831138" lon="0.397">
        <ele>1.222369</ele>
        <time>2023-09-10T07:10:03.000Z</time>
      </trkpt>
      <trkpt lat="50.831252" lon="0.396502">
        <ele>1.217488</ele>
        <time>2023-09-10T07:10:07.000Z</time>
      </trkpt>
      <trkpt lat="50.831269" lon="0.396292">
        <ele>1.215508</ele>
        <time>2023-09-10T07:10:08.000Z</time>
      </trkpt>
      <trkpt lat="50.831235" lon="0.396118">
        <ele>1.213797</ele>
        <time>2023-09-10T07:10:09.000Z</time>
      </trkpt>
      <trkpt lat="50.831122" lon="0.395764">
        <ele>1.210042</ele>
        <time>2023-09-10T07:10:12.000Z</time>
      </trkpt>
      <trkpt lat="50.830972" lon="0.395435">
        <ele>1.177573</ele>
        <time>2023-09-10T07:10:15.000Z</time>
      </trkpt>
      <trkpt lat="50.83" lon="0.393988">
        <ele>0.834244</ele>
        <time>2023-09-10T07:10:30.000Z</time>
      </trkpt>
      <trkpt lat="50.82994" lon="0.393951">
        <ele>0.819812</ele>
        <time>2023-09-10T07:10:31.000Z</time>
      </trkpt>
      <trkpt lat="50.829812" lon="0.393912">
        <ele>0.784202</ele>
        <time>2023-09-10T07:10:32.000Z</time>
      </trkpt>
      <trkpt lat="50.829615" lon="0.393574">
        <ele>0.753282</ele>
        <time>2023-09-10T07:10:35.000Z</time>
      </trkpt>
      <trkpt lat="50.829531" lon="0.393407">
        <ele>0.763058</ele>
        <time>2023-09-10T07:10:36.000Z</time>
      </trkpt>
      <trkpt lat="50.829484" lon="0.393337">
        <ele>0.767594</ele>
        <time>2023-09-10T07:10:37.000Z</time>
      </trkpt>
      <trkpt lat="50.829473" lon="0.393309">
        <ele>0.768894</ele>
        <time>2023-09-10T07:10:37.000Z</time>
      </trkpt>
      <trkpt lat="50.828957" lon="0.392543">
        <ele>0.816377</ele>
        <time>2023-09-10T07:10:45.000Z</time>
      </trkpt>
      <trkpt lat="50.827704" lon="0.390745">
        <ele>0.821378</ele>
        <time>2023-09-10T07:11:04.000Z</time>
      </trkpt>
      <trkpt lat="50.827085" lon="0.389796">
        <ele>0.787924</ele>
        <time>2023-09-10T07:11:14.000Z</time>
      </trkpt>
      <trkpt lat="50.826907" lon="0.389498">
        <ele>0.879836</ele>
        <time>2023-09-10T07:11:17.000Z</time>
      </trkpt>
      <trkpt lat="50.826772" lon="0.389122">
        <ele>0.973339</ele>
        <time>2023-09-10T07:11:20.000Z</time>
      </trkpt>
      <trkpt lat="50.826227" lon="0.384101">
        <ele>2.271489</ele>
        <time>2023-09-10T07:11:56.000Z</time>
      </trkpt>
      <trkpt lat="50.826051" lon="0.382802">
        <ele>2.745791</ele>
        <time>2023-09-10T07:12:05.000Z</time>
      </trkpt>
      <trkpt lat="50.825805" lon="0.380266">
        <ele>3.175305</ele>
        <time>2023-09-10T07:12:23.000Z</time>
      </trkpt>
      <trkpt lat="50.825803" lon="0.379892">
        <ele>3.17234</ele>
        <time>2023-09-10T07:12:26.000Z</time>
      </trkpt>
      <trkpt lat="50.825835" lon="0.378788">
        <ele>3.16322</ele>
        <time>2023-09-10T07:12:34.000Z</time>
      </trkpt>
      <trkpt lat="50.825952" lon="0.376853">
        <ele>1.906228</ele>
        <time>2023-09-10T07:12:48.000Z</time>
      </trkpt>
      <trkpt lat="50.82595" lon="0.376091">
        <ele>1.405795</ele>
        <time>2023-09-10T07:12:53.000Z</time>
      </trkpt>
      <trkpt lat="50.825888" lon="0.375443">
        <ele>1.132474</ele>
        <time>2023-09-10T07:12:58.000Z</time>
      </trkpt>
      <trkpt lat="50.825656" lon="0.37383">
        <ele>0.595141</ele>
        <time>2023-09-10T07:13:10.000Z</time>
      </trkpt>
      <trkpt lat="50.825663" lon="0.373423">
        <ele>0.468048</ele>
        <time>2023-09-10T07:13:13.000Z</time>
      </trkpt>
      <trkpt lat="50.825799" lon="0.372761">
        <ele>0.333575</ele>
        <time>2023-09-10T07:13:18.000Z</time>
      </trkpt>
      <trkpt lat="50.825916" lon="0.37241">
        <ele>0.301693</ele>
        <time>2023-09-10T07:13:21.000Z</time>
      </trkpt>
      <trkpt lat="50.826279" lon="0.371557">
        <ele>0.221152</ele>
        <time>2023-09-10T07:13:28.000Z</time>
      </trkpt>
      <trkpt lat="50.826352" lon="0.371288">
        <ele>0.198599</ele>
        <time>2023-09-10T07:13:30.000Z</time>
      </trkpt>
      <trkpt lat="50.826353" lon="0.371094">
        <ele>0.183628</ele>
        <time>2023-09-10T07:13:31.000Z</time>
      </trkpt>
      <trkpt lat="50.826337" lon="0.370947">
        <ele>0.170106</ele>
        <time>2023-09-10T07:13:32.000Z</time>
      </trkpt>
      <trkpt lat="50.826264" lon="0.370724">
        <ele>0.151136</ele>
        <time>2023-09-10T07:13:34.000Z</time>
      </trkpt>
      <trkpt lat="50.825719" lon="0.369725">
        <ele>0.269689</ele>
        <time>2023-09-10T07:13:43.000Z</time>
      </trkpt>
      <trkpt lat="50.824829" lon="0.367765">
        <ele>0.439918</ele>
        <time>2023-09-10T07:14:00.000Z</time>
      </trkpt>
      <trkpt lat="50.824556" lon="0.366595">
        <ele>0.409205</ele>
        <time>2023-09-10T07:14:09.000Z</time>
      </trkpt>
      <trkpt lat="50.82441" lon="0.366135">
        <ele>0.396974</ele>
        <time>2023-09-10T07:14:13.000Z</time>
      </trkpt>
      <trkpt lat="50.82411" lon="0.365293">
        <ele>0.44712</ele>
        <time>2023-09-10T07:14:20.000Z</time>
      </trkpt>
      <trkpt lat="50.824031" lon="0.365037">
        <ele>0.474991</ele>
        <time>2023-09-10T07:14:22.000Z</time>
      </trkpt>
      <trkpt lat="50.823963" lon="0.364705">
        <ele>0.508967</ele>
        <time>2023-09-10T07:14:24.000Z</time>
      </trkpt>
      <trkpt lat="50.823903" lon="0.364116">
        <ele>0.56686</ele>
        <time>2023-09-10T07:14:28.000Z</time>
      </trkpt>
      <trkpt lat="50.823817" lon="0.363012">
        <ele>0.675801</ele>
        <time>2023-09-10T07:14:36.000Z</time>
      </trkpt>
      <trkpt lat="50.82376" lon="0.362716">
        <ele>0.704777</ele>
        <time>2023-09-10T07:14:38.000Z</time>
      </trkpt>
      <trkpt lat="50.823603" lon="0.36235">
        <ele>0.745883</ele>
        <time>2023-09-10T07:14:41.000Z</time>
      </trkpt>
      <trkpt lat="50.823075" lon="0.361419">
        <ele>0.862065</ele>
        <time>2023-09-10T07:14:50.000Z</time>
      </trkpt>
      <trkpt lat="50.822638" lon="0.360914">
        <ele>0.926238</ele>
        <time>2023-09-10T07:14:56.000Z</time>
      </trkpt>
      <trkpt lat="50.822288" lon="0.36035">
        <ele>0.88122</ele>
        <time>2023-09-10T07:15:02.000Z</time>
      </trkpt>
      <trkpt lat="50.821976" lon="0.359733">
        <ele>0.837225</ele>
        <time>2023-09-10T07:15:08.000Z</time>
      </trkpt>
      <trkpt lat="50.821665" lon="0.359004">
        <ele>0.787682</ele>
        <time>2023-09-10T07:15:14.000Z</time>
      </trkpt>
      <trkpt lat="50.821546" lon="0.35862">
        <ele>0.759484</ele>
        <time>2023-09-10T07:15:17.000Z</time>
      </trkpt>
      <trkpt lat="50.821402" lon="0.358079">
        <ele>0.709734</ele>
        <time>2023-09-10T07:15:21.000Z</time>
      </trkpt>
      <trkpt lat="50.82125" lon="0.357711">
        <ele>0.672414</ele>
        <time>2023-09-10T07:15:24.000Z</time>
      </trkpt>
      <trkpt lat="50.820853" lon="0.357124">
        <ele>0.598187</ele>
        <time>2023-09-10T07:15:30.000Z</time>
      </trkpt>
      <trkpt lat="50.82079" lon="0.356888">
        <ele>0.576222</ele>
        <time>2023-09-10T07:15:32.000Z</time>
      </trkpt>
      <trkpt lat="50.820647" lon="0.355975">
        <ele>0.563038</ele>
        <time>2023-09-10T07:15:39.000Z</time>
      </trkpt>
      <trkpt lat="50.820464" lon="0.355102">
        <ele>0.648263</ele>
        <time>2023-09-10T07:15:45.000Z</time>
      </trkpt>
      <trkpt lat="50.820401" lon="0.354547">
        <ele>0.699982</ele>
        <time>2023-09-10T07:15:49.000Z</time>
      </trkpt>
      <trkpt lat="50.820349" lon="0.353653">
        <ele>0.782727</ele>
        <time>2023-09-10T07:15:55.000Z</time>
      </trkpt>
      <trkpt lat="50.82008" lon="0.352258">
        <ele>0.883128</ele>
        <time>2023-09-10T07:16:05.000Z</time>
      </trkpt>
      <trkpt lat="50.819917" lon="0.351262">
        <ele>0.954579</ele>
        <time>2023-09-10T07:16:12.000Z</time>
      </trkpt>
      <trkpt lat="50.819857" lon="0.350765">
        <ele>0.993591</ele>
        <time>2023-09-10T07:16:16.000Z</time>
      </trkpt>
      <trkpt lat="50.819883" lon="0.350335">
        <ele>1.057615</ele>
        <time>2023-09-10T07:16:19.000Z</time>
      </trkpt>
      <trkpt lat="50.820225" lon="0.348214">
        <ele>1.3853</ele>
        <time>2023-09-10T07:16:34.000Z</time>
      </trkpt>
      <trkpt lat="50.820766" lon="0.346181">
        <ele>1.660787</ele>
        <time>2023-09-10T07:16:49.000Z</time>
      </trkpt>
      <trkpt lat="50.821587" lon="0.344049">
        <ele>2.085367</ele>
        <time>2023-09-10T07:17:07.000Z</time>
      </trkpt>
      <trkpt lat="50.82158" lon="0.343843">
        <ele>2.124214</ele>
        <time>2023-09-10T07:17:08.000Z</time>
      </trkpt>
      <trkpt lat="50.821541" lon="0.343375">
        <ele>2.212356</ele>
        <time>2023-09-10T07:17:11.000Z</time>
      </trkpt>
      <trkpt lat="50.821573" lon="0.343124">
        <ele>2.264943</ele>
        <time>2023-09-10T07:17:13.000Z</time>
      </trkpt>
      <trkpt lat="50.821614" lon="0.343039">
        <ele>2.282245</ele>
        <time>2023-09-10T07:17:14.000Z</time>
      </trkpt>
      <trkpt lat="50.821661" lon="0.342974">
        <ele>2.302302</ele>
        <time>2023-09-10T07:17:15.000Z</time>
      </trkpt>
      <trkpt lat="50.821771" lon="0.342673">
        <ele>2.363542</ele>
        <time>2023-09-10T07:17:17.000Z</time>
      </trkpt>
      <trkpt lat="50.821768" lon="0.342564">
        <ele>2.383227</ele>
        <time>2023-09-10T07:17:18.000Z</time>
      </trkpt>
      <trkpt lat="50.821785" lon="0.342371">
        <ele>2.417991</ele>
        <time>2023-09-10T07:17:19.000Z</time>
      </trkpt>
      <trkpt lat="50.82186" lon="0.342232">
        <ele>2.452675</ele>
        <time>2023-09-10T07:17:20.000Z</time>
      </trkpt>
      <trkpt lat="50.821909" lon="0.342175">
        <ele>2.470051</ele>
        <time>2023-09-10T07:17:21.000Z</time>
      </trkpt>
      <trkpt lat="50.821934" lon="0.342163">
        <ele>2.478119</ele>
        <time>2023-09-10T07:17:21.000Z</time>
      </trkpt>
      <trkpt lat="50.822102" lon="0.342158">
        <ele>2.523755</ele>
        <time>2023-09-10T07:17:23.000Z</time>
      </trkpt>
      <trkpt lat="50.822242" lon="0.342308">
        <ele>2.572837</ele>
        <time>2023-09-10T07:17:25.000Z</time>
      </trkpt>
      <trkpt lat="50.822268" lon="0.342375">
        <ele>2.583363</ele>
        <time>2023-09-10T07:17:26.000Z</time>
      </trkpt>
      <trkpt lat="50.822287" lon="0.342585">
        <ele>2.622256</ele>
        <time>2023-09-10T07:17:27.000Z</time>
      </trkpt>
      <trkpt lat="50.822255" lon="0.342796">
        <ele>2.660865</ele>
        <time>2023-09-10T07:17:29.000Z</time>
      </trkpt>
      <trkpt lat="50.822195" lon="0.342876">
        <ele>2.680329</ele>
        <time>2023-09-10T07:17:30.000Z</time>
      </trkpt>
      <trkpt lat="50.822131" lon="0.343239">
        <ele>2.748408</ele>
        <time>2023-09-10T07:17:33.000Z</time>
      </trkpt>
      <trkpt lat="50.822109" lon="0.343461">
        <ele>2.790335</ele>
        <time>2023-09-10T07:17:35.000Z</time>
      </trkpt>
      <trkpt lat="50.822126" lon="0.343872">
        <ele>2.739032</ele>
        <time>2023-09-10T07:17:38.000Z</time>
      </trkpt>
      <trkpt lat="50.822242" lon="0.344536">
        <ele>2.587642</ele>
        <time>2023-09-10T07:17:43.000Z</time>
      </trkpt>
      <trkpt lat="50.822437" lon="0.345318">
        <ele>2.39981</ele>
        <time>2023-09-10T07:17:49.000Z</time>
      </trkpt>
      <trkpt lat="50.822566" lon="0.345746">
        <ele>2.292097</ele>
        <time>2023-09-10T07:17:52.000Z</time>
      </trkpt>
      <trkpt lat="50.822766" lon="0.346249">
        <ele>2.167048</ele>
        <time>2023-09-10T07:17:56.000Z</time>
      </trkpt>
      <trkpt lat="50.823128" lon="0.347031">
        <ele>2.051935</ele>
        <time>2023-09-10T07:18:03.000Z</time>
      </trkpt>
      <trkpt lat="50.823407" lon="0.34753">
        <ele>1.973599</ele>
        <time>2023-09-10T07:18:08.000Z</time>
      </trkpt>
      <trkpt lat="50.824055" lon="0.348602">
        <ele>1.821793</ele>
        <time>2023-09-10T07:18:18.000Z</time>
      </trkpt>
      <trkpt lat="50.824386" lon="0.349061">
        <ele>1.797073</ele>
        <time>2023-09-10T07:18:23.000Z</time>
      </trkpt>
      <trkpt lat="50.826947" lon="0.352312">
        <ele>1.596001</ele>
        <time>2023-09-10T07:19:00.000Z</time>
      </trkpt>
      <trkpt lat="50.830049" lon="0.356697">
        <ele>1.383429</ele>
        <time>2023-09-10T07:19:46.000Z</time>
      </trkpt>
      <trkpt lat="50.831437" lon="0.358431">
        <ele>1.4793</ele>
        <time>2023-09-10T07:20:06.000Z</time>
      </trkpt>
      <trkpt lat="50.832606" lon="0.359772">
        <ele>1.584689</ele>
        <time>2023-09-10T07:20:22.000Z</time>
      </trkpt>
      <trkpt lat="50.835373" lon="0.362635">
        <ele>1.692773</ele>
        <time>2023-09-10T07:20:59.000Z</time>
      </trkpt>
      <trkpt lat="50.836575" lon="0.36398">
        <ele>1.714705</ele>
        <time>2023-09-10T07:21:15.000Z</time>
      </trkpt>
      <trkpt lat="50.837965" lon="0.365635">
        <ele>1.749582</ele>
        <time>2023-09-10T07:21:34.000Z</time>
      </trkpt>
      <trkpt lat="50.838094" lon="0.365799">
        <ele>1.753029</ele>
        <time>2023-09-10T07:21:36.000Z</time>
      </trkpt>
      <trkpt lat="50.839501" lon="0.367503">
        <ele>1.541971</ele>
        <time>2023-09-10T07:21:56.000Z</time>
      </trkpt>
      <trkpt lat="50.839641" lon="0.367674">
        <ele>1.539111</ele>
        <time>2023-09-10T07:21:58.000Z</time>
      </trkpt>
      <trkpt lat="50.844559" lon="0.373669">
        <ele>1.557605</ele>
        <time>2023-09-10T07:23:07.000Z</time>
      </trkpt>
      <trkpt lat="50.844662" lon="0.373816">
        <ele>1.553467</ele>
        <time>2023-09-10T07:23:09.000Z</time>
      </trkpt>
      <trkpt lat="50.846364" lon="0.375903">
        <ele>1.429069</ele>
        <time>2023-09-10T07:23:33.000Z</time>
      </trkpt>
      <trkpt lat="50.846613" lon="0.376258">
        <ele>1.40431</ele>
        <time>2023-09-10T07:23:37.000Z</time>
      </trkpt>
      <trkpt lat="50.846864" lon="0.376655">
        <ele>1.580217</ele>
        <time>2023-09-10T07:23:41.000Z</time>
      </trkpt>
      <trkpt lat="50.847035" lon="0.376948">
        <ele>1.7103</ele>
        <time>2023-09-10T07:23:44.000Z</time>
      </trkpt>
      <trkpt lat="50.847173" lon="0.37695">
        <ele>1.784358</ele>
        <time>2023-09-10T07:23:46.000Z</time>
      </trkpt>
      <trkpt lat="50.847604" lon="0.377216">
        <ele>2.018973</ele>
        <time>2023-09-10T07:23:51.000Z</time>
      </trkpt>
      <trkpt lat="50.847879" lon="0.377447">
        <ele>2.179367</ele>
        <time>2023-09-10T07:23:54.000Z</time>
      </trkpt>
      <trkpt lat="50.848042" lon="0.377673">
        <ele>2.296852</ele>
        <time>2023-09-10T07:23:56.000Z</time>
      </trkpt>
      <trkpt lat="50.848418" lon="0.378321">
        <ele>3.759263</ele>
        <time>2023-09-10T07:24:02.000Z</time>
      </trkpt>
      <trkpt lat="50.848472" lon="0.378478">
        <ele>4.090187</ele>
        <time>2023-09-10T07:24:03.000Z</time>
      </trkpt>
      <trkpt lat="50.8485" lon="0.37852">
        <ele>4.182277</ele>
        <time>2023-09-10T07:24:03.000Z</time>
      </trkpt>
      <trkpt lat="50.848675" lon="0.378655">
        <ele>4.762965</ele>
        <time>2023-09-10T07:24:05.000Z</time>
      </trkpt>
      <trkpt lat="50.849516" lon="0.379391">
        <ele>7.662851</ele>
        <time>2023-09-10T07:24:16.000Z</time>
      </trkpt>
      <trkpt lat="50.85062" lon="0.380563">
        <ele>13.226382</ele>
        <time>2023-09-10T07:24:31.000Z</time>
      </trkpt>
      <trkpt lat="50.85157" lon="0.381472">
        <ele>17.841604</ele>
        <time>2023-09-10T07:24:43.000Z</time>
      </trkpt>
      <trkpt lat="50.851706" lon="0.381559">
        <ele>18.469731</ele>
        <time>2023-09-10T07:24:45.000Z</time>
      </trkpt>
      <trkpt lat="50.852367" lon="0.381532">
        <ele>21.216219</ele>
        <time>2023-09-10T07:24:52.000Z</time>
      </trkpt>
      <trkpt lat="50.852733" lon="0.381527">
        <ele>22.734629</ele>
        <time>2023-09-10T07:24:56.000Z</time>
      </trkpt>
      <trkpt lat="50.85322" lon="0.381376">
        <ele>24.124831</ele>
        <time>2023-09-10T07:25:02.000Z</time>
      </trkpt>
      <trkpt lat="50.8534" lon="0.381372">
        <ele>24.629435</ele>
        <time>2023-09-10T07:25:04.000Z</time>
      </trkpt>
      <trkpt lat="50.853556" lon="0.381421">
        <ele>25.0474</ele>
        <time>2023-09-10T07:25:06.000Z</time>
      </trkpt>
      <trkpt lat="50.85369" lon="0.381509">
        <ele>25.450725</ele>
        <time>2023-09-10T07:25:08.000Z</time>
      </trkpt>
      <trkpt lat="50.854999" lon="0.383165">
        <ele>29.801131</ele>
        <time>2023-09-10T07:25:27.000Z</time>
      </trkpt>
      <trkpt lat="50.855282" lon="0.383482">
        <ele>30.656429</ele>
        <time>2023-09-10T07:25:31.000Z</time>
      </trkpt>
      <trkpt lat="50.855538" lon="0.383682">
        <ele>31.331784</ele>
        <time>2023-09-10T07:25:34.000Z</time>
      </trkpt>
      <trkpt lat="50.855738" lon="0.383743">
        <ele>31.807735</ele>
        <time>2023-09-10T07:25:36.000Z</time>
      </trkpt>
      <trkpt lat="50.856014" lon="0.383746">
        <ele>32.366266</ele>
        <time>2023-09-10T07:25:39.000Z</time>
      </trkpt>
      <trkpt lat="50.856457" lon="0.383475">
        <ele>33.287864</ele>
        <time>2023-09-10T07:25:44.000Z</time>
      </trkpt>
      <trkpt lat="50.856791" lon="0.383253">
        <ele>33.998941</ele>
        <time>2023-09-10T07:25:48.000Z</time>
      </trkpt>
      <trkpt lat="50.857022" lon="0.383181">
        <ele>34.427771</ele>
        <time>2023-09-10T07:25:51.000Z</time>
      </trkpt>
      <trkpt lat="50.857204" lon="0.383212">
        <ele>34.787425</ele>
        <time>2023-09-10T07:25:53.000Z</time>
      </trkpt>
      <trkpt lat="50.857272" lon="0.38328">
        <ele>34.922811</ele>
        <time>2023-09-10T07:25:54.000Z</time>
      </trkpt>
      <trkpt lat="50.85732" lon="0.383376">
        <ele>35.080916</ele>
        <time>2023-09-10T07:25:55.000Z</time>
      </trkpt>
      <trkpt lat="50.857469" lon="0.383949">
        <ele>35.344524</ele>
        <time>2023-09-10T07:25:59.000Z</time>
      </trkpt>
      <trkpt lat="50.857553" lon="0.384082">
        <ele>35.225756</ele>
        <time>2023-09-10T07:26:00.000Z</time>
      </trkpt>
      <trkpt lat="50.857644" lon="0.38416">
        <ele>35.124917</ele>
        <time>2023-09-10T07:26:01.000Z</time>
      </trkpt>
      <trkpt lat="50.858629" lon="0.384207">
        <ele>34.130469</ele>
        <time>2023-09-10T07:26:12.000Z</time>
      </trkpt>
      <trkpt lat="50.85874" lon="0.384235">
        <ele>34.013621</ele>
        <time>2023-09-10T07:26:13.000Z</time>
      </trkpt>
      <trkpt lat="50.859081" lon="0.384478">
        <ele>33.678011</ele>
        <time>2023-09-10T07:26:17.000Z</time>
      </trkpt>
      <trkpt lat="50.859329" lon="0.384571">
        <ele>33.591055</ele>
        <time>2023-09-10T07:26:20.000Z</time>
      </trkpt>
      <trkpt lat="50.859632" lon="0.384678">
        <ele>33.48345</ele>
        <time>2023-09-10T07:26:23.000Z</time>
      </trkpt>
      <trkpt lat="50.860214" lon="0.38477">
        <ele>33.279704</ele>
        <time>2023-09-10T07:26:30.000Z</time>
      </trkpt>
      <trkpt lat="50.86032" lon="0.384815">
        <ele>33.238734</ele>
        <time>2023-09-10T07:26:31.000Z</time>
      </trkpt>
      <trkpt lat="50.860382" lon="0.384892">
        <ele>33.207884</ele>
        <time>2023-09-10T07:26:32.000Z</time>
      </trkpt>
      <trkpt lat="50.860544" lon="0.385154">
        <ele>33.130566</ele>
        <time>2023-09-10T07:26:35.000Z</time>
      </trkpt>
      <trkpt lat="50.860814" lon="0.385835">
        <ele>33.158775</ele>
        <time>2023-09-10T07:26:41.000Z</time>
      </trkpt>
      <trkpt lat="50.860913" lon="0.386191">
        <ele>33.221765</ele>
        <time>2023-09-10T07:26:44.000Z</time>
      </trkpt>
      <trkpt lat="50.861238" lon="0.387726">
        <ele>33.482655</ele>
        <time>2023-09-10T07:26:55.000Z</time>
      </trkpt>
      <trkpt lat="50.861407" lon="0.388544">
        <ele>33.063467</ele>
        <time>2023-09-10T07:27:01.000Z</time>
      </trkpt>
      <trkpt lat="50.861588" lon="0.389159">
        <ele>32.497278</ele>
        <time>2023-09-10T07:27:06.000Z</time>
      </trkpt>
      <trkpt lat="50.861924" lon="0.38998">
        <ele>31.666653</ele>
        <time>2023-09-10T07:27:13.000Z</time>
      </trkpt>
      <trkpt lat="50.861962" lon="0.390181">
        <ele>31.500859</ele>
        <time>2023-09-10T07:27:14.000Z</time>
      </trkpt>
      <trkpt lat="50.861894" lon="0.391153">
        <ele>31.009613</ele>
        <time>2023-09-10T07:27:21.000Z</time>
      </trkpt>
      <trkpt lat="50.861921" lon="0.391421">
        <ele>30.93955</ele>
        <time>2023-09-10T07:27:23.000Z</time>
      </trkpt>
      <trkpt lat="50.861973" lon="0.39165">
        <ele>30.881254</ele>
        <time>2023-09-10T07:27:25.000Z</time>
      </trkpt>
      <trkpt lat="50.862017" lon="0.39186">
        <ele>30.824777</ele>
        <time>2023-09-10T07:27:27.000Z</time>
      </trkpt>
      <trkpt lat="50.862163" lon="0.392193">
        <ele>30.721626</ele>
        <time>2023-09-10T07:27:30.000Z</time>
      </trkpt>
      <trkpt lat="50.862358" lon="0.392529">
        <ele>30.607478</ele>
        <time>2023-09-10T07:27:33.000Z</time>
      </trkpt>
      <trkpt lat="50.863242" lon="0.39367">
        <ele>30.253102</ele>
        <time>2023-09-10T07:27:46.000Z</time>
      </trkpt>
      <trkpt lat="50.864768" lon="0.396385">
        <ele>28.88813</ele>
        <time>2023-09-10T07:28:12.000Z</time>
      </trkpt>
      <trkpt lat="50.864967" lon="0.396616">
        <ele>28.678188</ele>
        <time>2023-09-10T07:28:15.000Z</time>
      </trkpt>
      <trkpt lat="50.865364" lon="0.397086">
        <ele>28.705005</ele>
        <time>2023-09-10T07:28:21.000Z</time>
      </trkpt>
      <trkpt lat="50.865512" lon="0.397219">
        <ele>29.149912</ele>
        <time>2023-09-10T07:28:23.000Z</time>
      </trkpt>
      <trkpt lat="50.865742" lon="0.397416">
        <ele>29.843125</ele>
        <time>2023-09-10T07:28:26.000Z</time>
      </trkpt>
      <trkpt lat="50.865993" lon="0.39756">
        <ele>30.517621</ele>
        <time>2023-09-10T07:28:29.000Z</time>
      </trkpt>
      <trkpt lat="50.866479" lon="0.397793">
        <ele>31.829064</ele>
        <time>2023-09-10T07:28:35.000Z</time>
      </trkpt>
      <trkpt lat="50.867295" lon="0.398273">
        <ele>34.240792</ele>
        <time>2023-09-10T07:28:45.000Z</time>
      </trkpt>
      <trkpt lat="50.867519" lon="0.398386">
        <ele>34.979851</ele>
        <time>2023-09-10T07:28:48.000Z</time>
      </trkpt>
      <trkpt lat="50.868436" lon="0.399246">
        <ele>38.239593</ele>
        <time>2023-09-10T07:29:00.000Z</time>
      </trkpt>
      <trkpt lat="50.868543" lon="0.399361">
        <ele>38.501231</ele>
        <time>2023-09-10T07:29:01.000Z</time>
      </trkpt>
      <trkpt lat="50.869015" lon="0.399878">
        <ele>38.517084</ele>
        <time>2023-09-10T07:29:07.000Z</time>
      </trkpt>
      <trkpt lat="50.86946" lon="0.400331">
        <ele>38.531769</ele>
        <time>2023-09-10T07:29:13.000Z</time>
      </trkpt>
      <trkpt lat="50.870332" lon="0.400922">
        <ele>38.107375</ele>
        <time>2023-09-10T07:29:24.000Z</time>
      </trkpt>
      <trkpt lat="50.870446" lon="0.401078">
        <ele>37.870363</ele>
        <time>2023-09-10T07:29:26.000Z</time>
      </trkpt>
      <trkpt lat="50.870519" lon="0.401243">
        <ele>37.68756</ele>
        <time>2023-09-10T07:29:27.000Z</time>
      </trkpt>
      <trkpt lat="50.87058" lon="0.401469">
        <ele>37.43744</ele>
        <time>2023-09-10T07:29:29.000Z</time>
      </trkpt>
      <trkpt lat="50.870659" lon="0.401865">
        <ele>37.058412</ele>
        <time>2023-09-10T07:29:32.000Z</time>
      </trkpt>
      <trkpt lat="50.870658" lon="0.402202">
        <ele>36.729852</ele>
        <time>2023-09-10T07:29:34.000Z</time>
      </trkpt>
      <trkpt lat="50.870628" lon="0.402509">
        <ele>36.44245</ele>
        <time>2023-09-10T07:29:36.000Z</time>
      </trkpt>
      <trkpt lat="50.870369" lon="0.403246">
        <ele>35.563489</ele>
        <time>2023-09-10T07:29:42.000Z</time>
      </trkpt>
      <trkpt lat="50.870168" lon="0.403999">
        <ele>34.413917</ele>
        <time>2023-09-10T07:29:48.000Z</time>
      </trkpt>
      <trkpt lat="50.870144" lon="0.404316">
        <ele>33.979015</ele>
        <time>2023-09-10T07:29:50.000Z</time>
      </trkpt>
      <trkpt lat="50.870154" lon="0.404705">
        <ele>33.437842</ele>
        <time>2023-09-10T07:29:53.000Z</time>
      </trkpt>
      <trkpt lat="50.870288" lon="0.406202">
        <ele>31.870684</ele>
        <time>2023-09-10T07:30:04.000Z</time>
      </trkpt>
      <trkpt lat="50.870347" lon="0.406468">
        <ele>31.83838</ele>
        <time>2023-09-10T07:30:06.000Z</time>
      </trkpt>
      <trkpt lat="50.870767" lon="0.407784">
        <ele>31.657719</ele>
        <time>2023-09-10T07:30:16.000Z</time>
      </trkpt>
      <trkpt lat="50.871031" lon="0.408851">
        <ele>32.013564</ele>
        <time>2023-09-10T07:30:24.000Z</time>
      </trkpt>
      <trkpt lat="50.871329" lon="0.409856">
        <ele>33.103136</ele>
        <time>2023-09-10T07:30:32.000Z</time>
      </trkpt>
      <trkpt lat="50.87183" lon="0.41117">
        <ele>34.658208</ele>
        <time>2023-09-10T07:30:43.000Z</time>
      </trkpt>
      <trkpt lat="50.871882" lon="0.411306">
        <ele>34.861529</ele>
        <time>2023-09-10T07:30:44.000Z</time>
      </trkpt>
      <trkpt lat="50.87197" lon="0.411463">
        <ele>35.107167</ele>
        <time>2023-09-10T07:30:45.000Z</time>
      </trkpt>
      <trkpt lat="50.872401" lon="0.412298">
        <ele>36.431876</ele>
        <time>2023-09-10T07:30:53.000Z</time>
      </trkpt>
      <trkpt lat="50.872615" lon="0.41265">
        <ele>37.038531</ele>
        <time>2023-09-10T07:30:56.000Z</time>
      </trkpt>
      <trkpt lat="50.872856" lon="0.41291">
        <ele>37.589188</ele>
        <time>2023-09-10T07:30:59.000Z</time>
      </trkpt>
      <trkpt lat="50.873497" lon="0.413478">
        <ele>39.259811</ele>
        <time>2023-09-10T07:31:07.000Z</time>
      </trkpt>
      <trkpt lat="50.873981" lon="0.413919">
        <ele>40.536743</ele>
        <time>2023-09-10T07:31:13.000Z</time>
      </trkpt>
      <trkpt lat="50.874178" lon="0.414114">
        <ele>41.068419</ele>
        <time>2023-09-10T07:31:16.000Z</time>
      </trkpt>
      <trkpt lat="50.874407" lon="0.414455">
        <ele>41.798779</ele>
        <time>2023-09-10T07:31:19.000Z</time>
      </trkpt>
      <trkpt lat="50.874907" lon="0.415398">
        <ele>43.333614</ele>
        <time>2023-09-10T07:31:28.000Z</time>
      </trkpt>
      <trkpt lat="50.875064" lon="0.415644">
        <ele>43.782251</ele>
        <time>2023-09-10T07:31:30.000Z</time>
      </trkpt>
      <trkpt lat="50.875097" lon="0.41567">
        <ele>43.848532</ele>
        <time>2023-09-10T07:31:30.000Z</time>
      </trkpt>
      <trkpt lat="50.875322" lon="0.415841">
        <ele>44.354195</ele>
        <time>2023-09-10T07:31:33.000Z</time>
      </trkpt>
      <trkpt lat="50.875476" lon="0.415877">
        <ele>44.62831</ele>
        <time>2023-09-10T07:31:35.000Z</time>
      </trkpt>
      <trkpt lat="50.875681" lon="0.415894">
        <ele>45.036942</ele>
        <time>2023-09-10T07:31:37.000Z</time>
      </trkpt>
      <trkpt lat="50.875785" lon="0.415965">
        <ele>45.270642</ele>
        <time>2023-09-10T07:31:38.000Z</time>
      </trkpt>
      <trkpt lat="50.875876" lon="0.416081">
        <ele>45.495084</ele>
        <time>2023-09-10T07:31:39.000Z</time>
      </trkpt>
      <trkpt lat="50.876095" lon="0.416623">
        <ele>46.228241</ele>
        <time>2023-09-10T07:31:44.000Z</time>
      </trkpt>
      <trkpt lat="50.876425" lon="0.417167">
        <ele>47.081806</ele>
        <time>2023-09-10T07:31:49.000Z</time>
      </trkpt>
      <trkpt lat="50.876808" lon="0.417826">
        <ele>48.10158</ele>
        <time>2023-09-10T07:31:55.000Z</time>
      </trkpt>
      <trkpt lat="50.876954" lon="0.418074">
        <ele>48.487748</ele>
        <time>2023-09-10T07:31:57.000Z</time>
      </trkpt>
      <trkpt lat="50.877187" lon="0.418457">
        <ele>48.95998</ele>
        <time>2023-09-10T07:32:01.000Z</time>
      </trkpt>
      <trkpt lat="50.877998" lon="0.419669">
        <ele>50.202271</ele>
        <time>2023-09-10T07:32:13.000Z</time>
      </trkpt>
      <trkpt lat="50.878422" lon="0.420338">
        <ele>50.958767</ele>
        <time>2023-09-10T07:32:20.000Z</time>
      </trkpt>
      <trkpt lat="50.878827" lon="0.420885">
        <ele>52.04502</ele>
        <time>2023-09-10T07:32:26.000Z</time>
      </trkpt>
      <trkpt lat="50.879111" lon="0.421864">
        <ele>53.439739</ele>
        <time>2023-09-10T07:32:34.000Z</time>
      </trkpt>
      <trkpt lat="50.87919" lon="0.422104">
        <ele>53.777737</ele>
        <time>2023-09-10T07:32:36.000Z</time>
      </trkpt>
      <trkpt lat="50.879317" lon="0.422394">
        <ele>54.241987</ele>
        <time>2023-09-10T07:32:38.000Z</time>
      </trkpt>
      <trkpt lat="50.879514" lon="0.422684">
        <ele>54.720004</ele>
        <time>2023-09-10T07:32:41.000Z</time>
      </trkpt>
      <trkpt lat="50.880106" lon="0.423375">
        <ele>55.972853</ele>
        <time>2023-09-10T07:32:49.000Z</time>
      </trkpt>
      <trkpt lat="50.880839" lon="0.424514">
        <ele>57.690957</ele>
        <time>2023-09-10T07:33:00.000Z</time>
      </trkpt>
      <trkpt lat="50.881254" lon="0.424773">
        <ele>58.355053</ele>
        <time>2023-09-10T07:33:05.000Z</time>
      </trkpt>
      <trkpt lat="50.881516" lon="0.424922">
        <ele>58.780542</ele>
        <time>2023-09-10T07:33:08.000Z</time>
      </trkpt>
      <trkpt lat="50.881814" lon="0.425139">
        <ele>59.264211</ele>
        <time>2023-09-10T07:33:12.000Z</time>
      </trkpt>
      <trkpt lat="50.882174" lon="0.425567">
        <ele>59.957927</ele>
        <time>2023-09-10T07:33:17.000Z</time>
      </trkpt>
      <trkpt lat="50.882489" lon="0.4261">
        <ele>61.083325</ele>
        <time>2023-09-10T07:33:22.000Z</time>
      </trkpt>
      <trkpt lat="50.882539" lon="0.42621">
        <ele>61.336989</ele>
        <time>2023-09-10T07:33:23.000Z</time>
      </trkpt>
      <trkpt lat="50.88261" lon="0.426319">
        <ele>61.645902</ele>
        <time>2023-09-10T07:33:24.000Z</time>
      </trkpt>
      <trkpt lat="50.882944" lon="0.426584">
        <ele>62.705083</ele>
        <time>2023-09-10T07:33:28.000Z</time>
      </trkpt>
      <trkpt lat="50.883482" lon="0.426855">
        <ele>64.412308</ele>
        <time>2023-09-10T07:33:34.000Z</time>
      </trkpt>
      <trkpt lat="50.883791" lon="0.427073">
        <ele>65.397238</ele>
        <time>2023-09-10T07:33:38.000Z</time>
      </trkpt>
      <trkpt lat="50.884149" lon="0.427311">
        <ele>66.465958</ele>
        <time>2023-09-10T07:33:42.000Z</time>
      </trkpt>
      <trkpt lat="50.884193" lon="0.427399">
        <ele>66.689752</ele>
        <time>2023-09-10T07:33:43.000Z</time>
      </trkpt>
      <trkpt lat="50.884232" lon="0.427524">
        <ele>66.92924</ele>
        <time>2023-09-10T07:33:44.000Z</time>
      </trkpt>
      <trkpt lat="50.884613" lon="0.427463">
        <ele>68.024231</ele>
        <time>2023-09-10T07:33:48.000Z</time>
      </trkpt>
      <trkpt lat="50.885111" lon="0.427267">
        <ele>69.466613</ele>
        <time>2023-09-10T07:33:54.000Z</time>
      </trkpt>
      <trkpt lat="50.885456" lon="0.427036">
        <ele>70.526323</ele>
        <time>2023-09-10T07:33:58.000Z</time>
      </trkpt>
      <trkpt lat="50.885662" lon="0.426862">
        <ele>70.896549</ele>
        <time>2023-09-10T07:34:01.000Z</time>
      </trkpt>
      <trkpt lat="50.885805" lon="0.4266">
        <ele>71.231388</ele>
        <time>2023-09-10T07:34:03.000Z</time>
      </trkpt>
      <trkpt lat="50.8863" lon="0.425603">
        <ele>72.502866</ele>
        <time>2023-09-10T07:34:12.000Z</time>
      </trkpt>
      <trkpt lat="50.886429" lon="0.425295">
        <ele>72.861985</ele>
        <time>2023-09-10T07:34:15.000Z</time>
      </trkpt>
      <trkpt lat="50.886453" lon="0.425243">
        <ele>72.916647</ele>
        <time>2023-09-10T07:34:15.000Z</time>
      </trkpt>
      <trkpt lat="50.886591" lon="0.424874">
        <ele>73.361243</ele>
        <time>2023-09-10T07:34:18.000Z</time>
      </trkpt>
      <trkpt lat="50.887031" lon="0.423671">
        <ele>73.720433</ele>
        <time>2023-09-10T07:34:28.000Z</time>
      </trkpt>
      <trkpt lat="50.887274" lon="0.422904">
        <ele>73.9483</ele>
        <time>2023-09-10T07:34:34.000Z</time>
      </trkpt>
      <trkpt lat="50.887363" lon="0.422613">
        <ele>74.034005</ele>
        <time>2023-09-10T07:34:36.000Z</time>
      </trkpt>
      <trkpt lat="50.887404" lon="0.422171">
        <ele>74.150431</ele>
        <time>2023-09-10T07:34:39.000Z</time>
      </trkpt>
      <trkpt lat="50.887426" lon="0.421938">
        <ele>74.208295</ele>
        <time>2023-09-10T07:34:41.000Z</time>
      </trkpt>
      <trkpt lat="50.887427" lon="0.421871">
        <ele>74.224755</ele>
        <time>2023-09-10T07:34:41.000Z</time>
      </trkpt>
      <trkpt lat="50.887463" lon="0.421649">
        <ele>74.281609</ele>
        <time>2023-09-10T07:34:43.000Z</time>
      </trkpt>
      <trkpt lat="50.887677" lon="0.420539">
        <ele>74.572284</ele>
        <time>2023-09-10T07:34:51.000Z</time>
      </trkpt>
      <trkpt lat="50.887813" lon="0.419904">
        <ele>74.743057</ele>
        <time>2023-09-10T07:34:56.000Z</time>
      </trkpt>
      <trkpt lat="50.887999" lon="0.418833">
        <ele>75.684087</ele>
        <time>2023-09-10T07:35:04.000Z</time>
      </trkpt>
      <trkpt lat="50.88814" lon="0.417981">
        <ele>76.641395</ele>
        <time>2023-09-10T07:35:10.000Z</time>
      </trkpt>
      <trkpt lat="50.888166" lon="0.417636">
        <ele>77.019317</ele>
        <time>2023-09-10T07:35:12.000Z</time>
      </trkpt>
      <trkpt lat="50.88818" lon="0.41687">
        <ele>77.833964</ele>
        <time>2023-09-10T07:35:17.000Z</time>
      </trkpt>
      <trkpt lat="50.888221" lon="0.416192">
        <ele>78.520628</ele>
        <time>2023-09-10T07:35:22.000Z</time>
      </trkpt>
      <trkpt lat="50.888541" lon="0.414567">
        <ele>80.206086</ele>
        <time>2023-09-10T07:35:34.000Z</time>
      </trkpt>
      <trkpt lat="50.888556" lon="0.414513">
        <ele>80.259324</ele>
        <time>2023-09-10T07:35:34.000Z</time>
      </trkpt>
      <trkpt lat="50.888588" lon="0.414178">
        <ele>80.595791</ele>
        <time>2023-09-10T07:35:36.000Z</time>
      </trkpt>
      <trkpt lat="50.888622" lon="0.413795">
        <ele>80.564748</ele>
        <time>2023-09-10T07:35:39.000Z</time>
      </trkpt>
      <trkpt lat="50.888678" lon="0.412781">
        <ele>79.841788</ele>
        <time>2023-09-10T07:35:46.000Z</time>
      </trkpt>
      <trkpt lat="50.888817" lon="0.41181">
        <ele>79.123683</ele>
        <time>2023-09-10T07:35:53.000Z</time>
      </trkpt>
      <trkpt lat="50.888954" lon="0.411018">
        <ele>77.991623</ele>
        <time>2023-09-10T07:35:59.000Z</time>
      </trkpt>
      <trkpt lat="50.889088" lon="0.410531">
        <ele>76.243124</ele>
        <time>2023-09-10T07:36:03.000Z</time>
      </trkpt>
      <trkpt lat="50.889255" lon="0.410079">
        <ele>74.49611</ele>
        <time>2023-09-10T07:36:07.000Z</time>
      </trkpt>
      <trkpt lat="50.889475" lon="0.409533">
        <ele>72.378534</ele>
        <time>2023-09-10T07:36:12.000Z</time>
      </trkpt>
      <trkpt lat="50.889614" lon="0.409087">
        <ele>70.805982</ele>
        <time>2023-09-10T07:36:15.000Z</time>
      </trkpt>
      <trkpt lat="50.88967" lon="0.408713">
        <ele>69.471938</ele>
        <time>2023-09-10T07:36:18.000Z</time>
      </trkpt>
      <trkpt lat="50.889705" lon="0.408296">
        <ele>67.952002</ele>
        <time>2023-09-10T07:36:21.000Z</time>
      </trkpt>
      <trkpt lat="50.889693" lon="0.407264">
        <ele>64.006608</ele>
        <time>2023-09-10T07:36:28.000Z</time>
      </trkpt>
      <trkpt lat="50.889623" lon="0.406841">
        <ele>62.311375</ele>
        <time>2023-09-10T07:36:31.000Z</time>
      </trkpt>
      <trkpt lat="50.889309" lon="0.40547">
        <ele>57.438354</ele>
        <time>2023-09-10T07:36:41.000Z</time>
      </trkpt>
      <trkpt lat="50.889222" lon="0.404867">
        <ele>55.987363</ele>
        <time>2023-09-10T07:36:45.000Z</time>
      </trkpt>
      <trkpt lat="50.88913" lon="0.404226">
        <ele>54.478118</ele>
        <time>2023-09-10T07:36:50.000Z</time>
      </trkpt>
      <trkpt lat="50.889071" lon="0.404043">
        <ele>53.975751</ele>
        <time>2023-09-10T07:36:51.000Z</time>
      </trkpt>
      <trkpt lat="50.888862" lon="0.403343">
        <ele>52.208209</ele>
        <time>2023-09-10T07:36:56.000Z</time>
      </trkpt>
      <trkpt lat="50.888256" lon="0.401539">
        <ele>48.304999</ele>
        <time>2023-09-10T07:37:10.000Z</time>
      </trkpt>
      <trkpt lat="50.88804" lon="0.400793">
        <ele>46.765066</ele>
        <time>2023-09-10T07:37:16.000Z</time>
      </trkpt>
      <trkpt lat="50.887924" lon="0.400339">
        <ele>46.045955</ele>
        <time>2023-09-10T07:37:19.000Z</time>
      </trkpt>
      <trkpt lat="50.887808" lon="0.399824">
        <ele>45.335487</ele>
        <time>2023-09-10T07:37:23.000Z</time>
      </trkpt>
      <trkpt lat="50.887795" lon="0.399615">
        <ele>45.06132</ele>
        <time>2023-09-10T07:37:24.000Z</time>
      </trkpt>
      <trkpt lat="50.887762" lon="0.398778">
        <ele>43.945517</ele>
        <time>2023-09-10T07:37:30.000Z</time>
      </trkpt>
      <trkpt lat="50.887799" lon="0.396913">
        <ele>41.169107</ele>
        <time>2023-09-10T07:37:43.000Z</time>
      </trkpt>
      <trkpt lat="50.887759" lon="0.396077">
        <ele>39.798311</ele>
        <time>2023-09-10T07:37:49.000Z</time>
      </trkpt>
      <trkpt lat="50.887639" lon="0.395329">
        <ele>38.519348</ele>
        <time>2023-09-10T07:37:54.000Z</time>
      </trkpt>
      <trkpt lat="50.887444" lon="0.394652">
        <ele>37.000524</ele>
        <time>2023-09-10T07:37:59.000Z</time>
      </trkpt>
      <trkpt lat="50.886931" lon="0.393252">
        <ele>33.157291</ele>
        <time>2023-09-10T07:38:10.000Z</time>
      </trkpt>
      <trkpt lat="50.886716" lon="0.392586">
        <ele>31.453425</ele>
        <time>2023-09-10T07:38:15.000Z</time>
      </trkpt>
      <trkpt lat="50.88635" lon="0.391018">
        <ele>26.493082</ele>
        <time>2023-09-10T07:38:27.000Z</time>
      </trkpt>
      <trkpt lat="50.886149" lon="0.389011">
        <ele>20.711958</ele>
        <time>2023-09-10T07:38:41.000Z</time>
      </trkpt>
      <trkpt lat="50.886087" lon="0.38839">
        <ele>19.035004</ele>
        <time>2023-09-10T07:38:45.000Z</time>
      </trkpt>
      <trkpt lat="50.885934" lon="0.387423">
        <ele>16.361574</ele>
        <time>2023-09-10T07:38:52.000Z</time>
      </trkpt>
      <trkpt lat="50.885882" lon="0.387226">
        <ele>15.768136</ele>
        <time>2023-09-10T07:38:53.000Z</time>
      </trkpt>
      <trkpt lat="50.885693" lon="0.386431">
        <ele>13.780032</ele>
        <time>2023-09-10T07:38:59.000Z</time>
      </trkpt>
      <trkpt lat="50.885311" lon="0.385346">
        <ele>10.890703</ele>
        <time>2023-09-10T07:39:08.000Z</time>
      </trkpt>
      <trkpt lat="50.885033" lon="0.384729">
        <ele>9.221894</ele>
        <time>2023-09-10T07:39:13.000Z</time>
      </trkpt>
      <trkpt lat="50.884779" lon="0.384204">
        <ele>7.940449</ele>
        <time>2023-09-10T07:39:18.000Z</time>
      </trkpt>
      <trkpt lat="50.884137" lon="0.383051">
        <ele>5.317822</ele>
        <time>2023-09-10T07:39:29.000Z</time>
      </trkpt>
      <trkpt lat="50.883262" lon="0.381745">
        <ele>4.161076</ele>
        <time>2023-09-10T07:39:42.000Z</time>
      </trkpt>
      <trkpt lat="50.883246" lon="0.381711">
        <ele>4.17358</ele>
        <time>2023-09-10T07:39:42.000Z</time>
      </trkpt>
      <trkpt lat="50.883107" lon="0.381495">
        <ele>4.252762</ele>
        <time>2023-09-10T07:39:44.000Z</time>
      </trkpt>
      <trkpt lat="50.8827" lon="0.380866">
        <ele>4.489715</ele>
        <time>2023-09-10T07:39:50.000Z</time>
      </trkpt>
      <trkpt lat="50.882253" lon="0.380112">
        <ele>6.061742</ele>
        <time>2023-09-10T07:39:57.000Z</time>
      </trkpt>
      <trkpt lat="50.881191" lon="0.378158">
        <ele>13.524774</ele>
        <time>2023-09-10T07:40:15.000Z</time>
      </trkpt>
      <trkpt lat="50.880391" lon="0.37693">
        <ele>20.57595</ele>
        <time>2023-09-10T07:40:27.000Z</time>
      </trkpt>
      <trkpt lat="50.878904" lon="0.374706">
        <ele>34.337425</ele>
        <time>2023-09-10T07:40:50.000Z</time>
      </trkpt>
      <trkpt lat="50.878702" lon="0.37431">
        <ele>36.415639</ele>
        <time>2023-09-10T07:40:54.000Z</time>
      </trkpt>
      <trkpt lat="50.878374" lon="0.373374">
        <ele>38.332551</ele>
        <time>2023-09-10T07:41:02.000Z</time>
      </trkpt>
      <trkpt lat="50.878232" lon="0.372926">
        <ele>39.250168</ele>
        <time>2023-09-10T07:41:06.000Z</time>
      </trkpt>
      <trkpt lat="50.878132" lon="0.372493">
        <ele>40.052804</ele>
        <time>2023-09-10T07:41:09.000Z</time>
      </trkpt>
      <trkpt lat="50.878117" lon="0.372439">
        <ele>40.166902</ele>
        <time>2023-09-10T07:41:09.000Z</time>
      </trkpt>
      <trkpt lat="50.87771" lon="0.370733">
        <ele>40.601663</ele>
        <time>2023-09-10T07:41:22.000Z</time>
      </trkpt>
      <trkpt lat="50.877509" lon="0.369739">
        <ele>39.812221</ele>
        <time>2023-09-10T07:41:29.000Z</time>
      </trkpt>
      <trkpt lat="50.877351" lon="0.368597">
        <ele>39.394999</ele>
        <time>2023-09-10T07:41:37.000Z</time>
      </trkpt>
      <trkpt lat="50.877232" lon="0.367393">
        <ele>39.692915</ele>
        <time>2023-09-10T07:41:46.000Z</time>
      </trkpt>
      <trkpt lat="50.877221" lon="0.366952">
        <ele>39.800795</ele>
        <time>2023-09-10T07:41:49.000Z</time>
      </trkpt>
      <trkpt lat="50.87725" lon="0.366374">
        <ele>39.941185</ele>
        <time>2023-09-10T07:41:53.000Z</time>
      </trkpt>
      <trkpt lat="50.877261" lon="0.365914">
        <ele>40.379428</ele>
        <time>2023-09-10T07:41:56.000Z</time>
      </trkpt>
      <trkpt lat="50.877331" lon="0.365296">
        <ele>41.1589</ele>
        <time>2023-09-10T07:42:00.000Z</time>
      </trkpt>
      <trkpt lat="50.877369" lon="0.365113">
        <ele>41.388423</ele>
        <time>2023-09-10T07:42:01.000Z</time>
      </trkpt>
      <trkpt lat="50.877411" lon="0.364921">
        <ele>41.635555</ele>
        <time>2023-09-10T07:42:02.000Z</time>
      </trkpt>
      <trkpt lat="50.877543" lon="0.364638">
        <ele>42.072784</ele>
        <time>2023-09-10T07:42:04.000Z</time>
      </trkpt>
      <trkpt lat="50.877681" lon="0.36437">
        <ele>42.503721</ele>
        <time>2023-09-10T07:42:06.000Z</time>
      </trkpt>
      <trkpt lat="50.877938" lon="0.363895">
        <ele>43.252558</ele>
        <time>2023-09-10T07:42:10.000Z</time>
      </trkpt>
      <trkpt lat="50.878062" lon="0.363646">
        <ele>43.69604</ele>
        <time>2023-09-10T07:42:12.000Z</time>
      </trkpt>
      <trkpt lat="50.878467" lon="0.362892">
        <ele>45.12615</ele>
        <time>2023-09-10T07:42:19.000Z</time>
      </trkpt>
      <trkpt lat="50.878669" lon="0.362356">
        <ele>46.033034</ele>
        <time>2023-09-10T07:42:23.000Z</time>
      </trkpt>
      <trkpt lat="50.878747" lon="0.362024">
        <ele>46.56185</ele>
        <time>2023-09-10T07:42:25.000Z</time>
      </trkpt>
      <trkpt lat="50.878868" lon="0.361535">
        <ele>47.312393</ele>
        <time>2023-09-10T07:42:29.000Z</time>
      </trkpt>
      <trkpt lat="50.879078" lon="0.360894">
        <ele>48.267285</ele>
        <time>2023-09-10T07:42:34.000Z</time>
      </trkpt>
      <trkpt lat="50.879174" lon="0.36071">
        <ele>48.548807</ele>
        <time>2023-09-10T07:42:36.000Z</time>
      </trkpt>
      <trkpt lat="50.879413" lon="0.360385">
        <ele>49.185795</ele>
        <time>2023-09-10T07:42:40.000Z</time>
      </trkpt>
      <trkpt lat="50.879498" lon="0.360291">
        <ele>49.375631</ele>
        <time>2023-09-10T07:42:41.000Z</time>
      </trkpt>
      <trkpt lat="50.880178" lon="0.359423">
        <ele>51.116573</ele>
        <time>2023-09-10T07:42:51.000Z</time>
      </trkpt>
      <trkpt lat="50.880472" lon="0.359008">
        <ele>51.254391</ele>
        <time>2023-09-10T07:42:55.000Z</time>
      </trkpt>
      <trkpt lat="50.880769" lon="0.358411">
        <ele>51.343203</ele>
        <time>2023-09-10T07:43:00.000Z</time>
      </trkpt>
      <trkpt lat="50.881187" lon="0.357618">
        <ele>51.461782</ele>
        <time>2023-09-10T07:43:07.000Z</time>
      </trkpt>
      <trkpt lat="50.881288" lon="0.35724">
        <ele>51.508479</ele>
        <time>2023-09-10T07:43:10.000Z</time>
      </trkpt>
      <trkpt lat="50.881513" lon="0.356604">
        <ele>50.541314</ele>
        <time>2023-09-10T07:43:15.000Z</time>
      </trkpt>
      <trkpt lat="50.881805" lon="0.355972">
        <ele>49.381731</ele>
        <time>2023-09-10T07:43:20.000Z</time>
      </trkpt>
      <trkpt lat="50.881702" lon="0.355748">
        <ele>48.991222</ele>
        <time>2023-09-10T07:43:22.000Z</time>
      </trkpt>
      <trkpt lat="50.881626" lon="0.355716">
        <ele>48.807602</ele>
        <time>2023-09-10T07:43:23.000Z</time>
      </trkpt>
      <trkpt lat="50.881117" lon="0.355509">
        <ele>47.562665</ele>
        <time>2023-09-10T07:43:29.000Z</time>
      </trkpt>
      <trkpt lat="50.880524" lon="0.355363">
        <ele>45.859097</ele>
        <time>2023-09-10T07:43:36.000Z</time>
      </trkpt>
      <trkpt lat="50.879604" lon="0.354915">
        <ele>43.105496</ele>
        <time>2023-09-10T07:43:47.000Z</time>
      </trkpt>
      <trkpt lat="50.878825" lon="0.354747">
        <ele>41.036988</ele>
        <time>2023-09-10T07:43:56.000Z</time>
      </trkpt>
      <trkpt lat="50.878738" lon="0.354678">
        <ele>40.836053</ele>
        <time>2023-09-10T07:43:57.000Z</time>
      </trkpt>
      <trkpt lat="50.877418" lon="0.352365">
        <ele>36.081494</ele>
        <time>2023-09-10T07:44:19.000Z</time>
      </trkpt>
      <trkpt lat="50.877288" lon="0.352038">
        <ele>35.438839</ele>
        <time>2023-09-10T07:44:22.000Z</time>
      </trkpt>
      <trkpt lat="50.876778" lon="0.350452">
        <ele>32.778614</ele>
        <time>2023-09-10T07:44:34.000Z</time>
      </trkpt>
      <trkpt lat="50.876664" lon="0.350337">
        <ele>32.587246</ele>
        <time>2023-09-10T07:44:36.000Z</time>
      </trkpt>
      <trkpt lat="50.876511" lon="0.350302">
        <ele>32.373767</ele>
        <time>2023-09-10T07:44:38.000Z</time>
      </trkpt>
      <trkpt lat="50.875816" lon="0.350458">
        <ele>31.393245</ele>
        <time>2023-09-10T07:44:46.000Z</time>
      </trkpt>
      <trkpt lat="50.875529" lon="0.350514">
        <ele>30.984658</ele>
        <time>2023-09-10T07:44:49.000Z</time>
      </trkpt>
      <trkpt lat="50.875147" lon="0.350504">
        <ele>30.861313</ele>
        <time>2023-09-10T07:44:53.000Z</time>
      </trkpt>
      <trkpt lat="50.873548" lon="0.349734">
        <ele>34.130703</ele>
        <time>2023-09-10T07:45:12.000Z</time>
      </trkpt>
      <trkpt lat="50.872926" lon="0.349522">
        <ele>34.629753</ele>
        <time>2023-09-10T07:45:19.000Z</time>
      </trkpt>
      <trkpt lat="50.872189" lon="0.349389">
        <ele>35.191619</ele>
        <time>2023-09-10T07:45:27.000Z</time>
      </trkpt>
      <trkpt lat="50.871331" lon="0.349165">
        <ele>35.209085</ele>
        <time>2023-09-10T07:45:37.000Z</time>
      </trkpt>
      <trkpt lat="50.870959" lon="0.349093">
        <ele>34.93445</ele>
        <time>2023-09-10T07:45:41.000Z</time>
      </trkpt>
      <trkpt lat="50.869761" lon="0.348958">
        <ele>33.920265</ele>
        <time>2023-09-10T07:45:54.000Z</time>
      </trkpt>
      <trkpt lat="50.869049" lon="0.348926">
        <ele>32.883879</ele>
        <time>2023-09-10T07:46:02.000Z</time>
      </trkpt>
      <trkpt lat="50.868774" lon="0.348919">
        <ele>32.467738</ele>
        <time>2023-09-10T07:46:05.000Z</time>
      </trkpt>
      <trkpt lat="50.868601" lon="0.348962">
        <ele>32.215026</ele>
        <time>2023-09-10T07:46:07.000Z</time>
      </trkpt>
      <trkpt lat="50.868393" lon="0.34907">
        <ele>31.898216</ele>
        <time>2023-09-10T07:46:09.000Z</time>
      </trkpt>
      <trkpt lat="50.868333" lon="0.349105">
        <ele>31.811892</ele>
        <time>2023-09-10T07:46:10.000Z</time>
      </trkpt>
      <trkpt lat="50.867917" lon="0.349366">
        <ele>30.805358</ele>
        <time>2023-09-10T07:46:15.000Z</time>
      </trkpt>
      <trkpt lat="50.867186" lon="0.349742">
        <ele>28.735735</ele>
        <time>2023-09-10T07:46:24.000Z</time>
      </trkpt>
      <trkpt lat="50.866944" lon="0.34982">
        <ele>28.094737</ele>
        <time>2023-09-10T07:46:27.000Z</time>
      </trkpt>
      <trkpt lat="50.866446" lon="0.349895">
        <ele>26.818132</ele>
        <time>2023-09-10T07:46:33.000Z</time>
      </trkpt>
      <trkpt lat="50.866176" lon="0.349915">
        <ele>26.357844</ele>
        <time>2023-09-10T07:46:36.000Z</time>
      </trkpt>
      <trkpt lat="50.865963" lon="0.34999">
        <ele>25.993596</ele>
        <time>2023-09-10T07:46:38.000Z</time>
      </trkpt>
      <trkpt lat="50.865411" lon="0.350457">
        <ele>24.92155</ele>
        <time>2023-09-10T07:46:45.000Z</time>
      </trkpt>
      <trkpt lat="50.865049" lon="0.350762">
        <ele>24.221005</ele>
        <time>2023-09-10T07:46:50.000Z</time>
      </trkpt>
      <trkpt lat="50.864792" lon="0.350896">
        <ele>23.795673</ele>
        <time>2023-09-10T07:46:53.000Z</time>
      </trkpt>
      <trkpt lat="50.864189" lon="0.350946">
        <ele>23.68362</ele>
        <time>2023-09-10T07:47:00.000Z</time>
      </trkpt>
      <trkpt lat="50.863447" lon="0.350951">
        <ele>23.550701</ele>
        <time>2023-09-10T07:47:08.000Z</time>
      </trkpt>
      <trkpt lat="50.863307" lon="0.35095">
        <ele>23.522402</ele>
        <time>2023-09-10T07:47:10.000Z</time>
      </trkpt>
      <trkpt lat="50.862568" lon="0.351232">
        <ele>22.6836</ele>
        <time>2023-09-10T07:47:18.000Z</time>
      </trkpt>
      <trkpt lat="50.862531" lon="0.351251">
        <ele>22.614957</ele>
        <time>2023-09-10T07:47:18.000Z</time>
      </trkpt>
      <trkpt lat="50.862259" lon="0.351474">
        <ele>22.065822</ele>
        <time>2023-09-10T07:47:21.000Z</time>
      </trkpt>
      <trkpt lat="50.862061" lon="0.351658">
        <ele>21.666772</ele>
        <time>2023-09-10T07:47:24.000Z</time>
      </trkpt>
      <trkpt lat="50.861408" lon="0.352416">
        <ele>20.515305</ele>
        <time>2023-09-10T07:47:33.000Z</time>
      </trkpt>
      <trkpt lat="50.860703" lon="0.353215">
        <ele>22.571668</ele>
        <time>2023-09-10T07:47:43.000Z</time>
      </trkpt>
      <trkpt lat="50.860465" lon="0.353436">
        <ele>23.235406</ele>
        <time>2023-09-10T07:47:46.000Z</time>
      </trkpt>
      <trkpt lat="50.860226" lon="0.353561">
        <ele>23.817478</ele>
        <time>2023-09-10T07:47:49.000Z</time>
      </trkpt>
      <trkpt lat="50.859751" lon="0.35372">
        <ele>24.966406</ele>
        <time>2023-09-10T07:47:54.000Z</time>
      </trkpt>
      <trkpt lat="50.859173" lon="0.353984">
        <ele>26.345804</ele>
        <time>2023-09-10T07:48:01.000Z</time>
      </trkpt>
      <trkpt lat="50.858912" lon="0.354163">
        <ele>26.99116</ele>
        <time>2023-09-10T07:48:04.000Z</time>
      </trkpt>
      <trkpt lat="50.858823" lon="0.354175">
        <ele>27.20061</ele>
        <time>2023-09-10T07:48:05.000Z</time>
      </trkpt>
      <trkpt lat="50.858664" lon="0.354075">
        <ele>27.572942</ele>
        <time>2023-09-10T07:48:07.000Z</time>
      </trkpt>
      <trkpt lat="50.858532" lon="0.35383">
        <ele>28.048891</ele>
        <time>2023-09-10T07:48:09.000Z</time>
      </trkpt>
      <trkpt lat="50.85824" lon="0.35317">
        <ele>27.805576</ele>
        <time>2023-09-10T07:48:15.000Z</time>
      </trkpt>
      <trkpt lat="50.857849" lon="0.35251">
        <ele>25.059253</ele>
        <time>2023-09-10T07:48:21.000Z</time>
      </trkpt>
      <trkpt lat="50.857565" lon="0.352065">
        <ele>23.14085</ele>
        <time>2023-09-10T07:48:25.000Z</time>
      </trkpt>
      <trkpt lat="50.857263" lon="0.351756">
        <ele>21.40788</ele>
        <time>2023-09-10T07:48:29.000Z</time>
      </trkpt>
      <trkpt lat="50.856248" lon="0.351011">
        <ele>15.307202</ele>
        <time>2023-09-10T07:48:41.000Z</time>
      </trkpt>
      <trkpt lat="50.85446" lon="0.350589">
        <ele>6.512271</ele>
        <time>2023-09-10T07:49:01.000Z</time>
      </trkpt>
      <trkpt lat="50.853824" lon="0.350286">
        <ele>3.961131</ele>
        <time>2023-09-10T07:49:08.000Z</time>
      </trkpt>
      <trkpt lat="50.853153" lon="0.349952">
        <ele>2.443358</ele>
        <time>2023-09-10T07:49:16.000Z</time>
      </trkpt>
      <trkpt lat="50.852945" lon="0.349898">
        <ele>2.226112</ele>
        <time>2023-09-10T07:49:18.000Z</time>
      </trkpt>
      <trkpt lat="50.85276" lon="0.3499">
        <ele>2.032641</ele>
        <time>2023-09-10T07:49:20.000Z</time>
      </trkpt>
      <trkpt lat="50.851472" lon="0.350191">
        <ele>0.927447</ele>
        <time>2023-09-10T07:49:34.000Z</time>
      </trkpt>
      <trkpt lat="50.850591" lon="0.35028">
        <ele>0.725186</ele>
        <time>2023-09-10T07:49:44.000Z</time>
      </trkpt>
      <trkpt lat="50.847412" lon="0.349638">
        <ele>0.540057</ele>
        <time>2023-09-10T07:50:20.000Z</time>
      </trkpt>
      <trkpt lat="50.846733" lon="0.349497">
        <ele>0.552247</ele>
        <time>2023-09-10T07:50:28.000Z</time>
      </trkpt>
      <trkpt lat="50.84633" lon="0.349367">
        <ele>0.571325</ele>
        <time>2023-09-10T07:50:33.000Z</time>
      </trkpt>
      <trkpt lat="50.845793" lon="0.348986">
        <ele>0.648527</ele>
        <time>2023-09-10T07:50:40.000Z</time>
      </trkpt>
      <trkpt lat="50.844367" lon="0.347585">
        <ele>0.857196</ele>
        <time>2023-09-10T07:50:59.000Z</time>
      </trkpt>
      <trkpt lat="50.843588" lon="0.346685">
        <ele>0.960811</ele>
        <time>2023-09-10T07:51:10.000Z</time>
      </trkpt>
      <trkpt lat="50.842912" lon="0.345745">
        <ele>1.036188</ele>
        <time>2023-09-10T07:51:20.000Z</time>
      </trkpt>
      <trkpt lat="50.842654" lon="0.345352">
        <ele>1.062307</ele>
        <time>2023-09-10T07:51:24.000Z</time>
      </trkpt>
      <trkpt lat="50.842464" lon="0.345165">
        <ele>1.078999</ele>
        <time>2023-09-10T07:51:26.000Z</time>
      </trkpt>
      <trkpt lat="50.842099" lon="0.344867">
        <ele>1.109015</ele>
        <time>2023-09-10T07:51:31.000Z</time>
      </trkpt>
      <trkpt lat="50.841503" lon="0.344434">
        <ele>1.218053</ele>
        <time>2023-09-10T07:51:38.000Z</time>
      </trkpt>
      <trkpt lat="50.83991" lon="0.342965">
        <ele>1.473617</ele>
        <time>2023-09-10T07:51:58.000Z</time>
      </trkpt>
      <trkpt lat="50.839615" lon="0.34277">
        <ele>1.472933</ele>
        <time>2023-09-10T07:52:02.000Z</time>
      </trkpt>
      <trkpt lat="50.839333" lon="0.342784">
        <ele>1.4723</ele>
        <time>2023-09-10T07:52:05.000Z</time>
      </trkpt>
      <trkpt lat="50.838852" lon="0.343018">
        <ele>1.471154</ele>
        <time>2023-09-10T07:52:11.000Z</time>
      </trkpt>
      <trkpt lat="50.838315" lon="0.343134">
        <ele>1.400572</ele>
        <time>2023-09-10T07:52:17.000Z</time>
      </trkpt>
      <trkpt lat="50.837207" lon="0.342647">
        <ele>1.196575</ele>
        <time>2023-09-10T07:52:30.000Z</time>
      </trkpt>
      <trkpt lat="50.836809" lon="0.342735">
        <ele>1.135469</ele>
        <time>2023-09-10T07:52:34.000Z</time>
      </trkpt>
      <trkpt lat="50.835929" lon="0.343286">
        <ele>1.043869</ele>
        <time>2023-09-10T07:52:45.000Z</time>
      </trkpt>
      <trkpt lat="50.833255" lon="0.343949">
        <ele>0.872869</ele>
        <time>2023-09-10T07:53:15.000Z</time>
      </trkpt>
      <trkpt lat="50.832619" lon="0.344245">
        <ele>0.810739</ele>
        <time>2023-09-10T07:53:22.000Z</time>
      </trkpt>
      <trkpt lat="50.831765" lon="0.344462">
        <ele>0.729333</ele>
        <time>2023-09-10T07:53:32.000Z</time>
      </trkpt>
      <trkpt lat="50.829905" lon="0.344212">
        <ele>0.669135</ele>
        <time>2023-09-10T07:53:53.000Z</time>
      </trkpt>
      <trkpt lat="50.829207" lon="0.343891">
        <ele>0.615141</ele>
        <time>2023-09-10T07:54:01.000Z</time>
      </trkpt>
      <trkpt lat="50.82852" lon="0.343305">
        <ele>0.557602</ele>
        <time>2023-09-10T07:54:10.000Z</time>
      </trkpt>
      <trkpt lat="50.828109" lon="0.343092">
        <ele>0.556695</ele>
        <time>2023-09-10T07:54:15.000Z</time>
      </trkpt>
      <trkpt lat="50.82669" lon="0.343061">
        <ele>0.767463</ele>
        <time>2023-09-10T07:54:31.000Z</time>
      </trkpt>
      <trkpt lat="50.82607" lon="0.342933">
        <ele>0.938704</ele>
        <time>2023-09-10T07:54:38.000Z</time>
      </trkpt>
      <trkpt lat="50.824882" lon="0.342195">
        <ele>1.382867</ele>
        <time>2023-09-10T07:54:52.000Z</time>
      </trkpt>
      <trkpt lat="50.824428" lon="0.341458">
        <ele>1.633965</ele>
        <time>2023-09-10T07:54:59.000Z</time>
      </trkpt>
      <trkpt lat="50.824239" lon="0.341195">
        <ele>1.732406</ele>
        <time>2023-09-10T07:55:02.000Z</time>
      </trkpt>
      <trkpt lat="50.824049" lon="0.340991">
        <ele>1.824553</ele>
        <time>2023-09-10T07:55:05.000Z</time>
      </trkpt>
      <trkpt lat="50.823956" lon="0.34093">
        <ele>1.8688</ele>
        <time>2023-09-10T07:55:06.000Z</time>
      </trkpt>
      <trkpt lat="50.823849" lon="0.340925">
        <ele>1.911231</ele>
        <time>2023-09-10T07:55:07.000Z</time>
      </trkpt>
      <trkpt lat="50.823694" lon="0.340947">
        <ele>1.97396</ele>
        <time>2023-09-10T07:55:09.000Z</time>
      </trkpt>
      <trkpt lat="50.82318" lon="0.341291">
        <ele>2.163818</ele>
        <time>2023-09-10T07:55:15.000Z</time>
      </trkpt>
      <trkpt lat="50.823063" lon="0.341432">
        <ele>2.185093</ele>
        <time>2023-09-10T07:55:17.000Z</time>
      </trkpt>
      <trkpt lat="50.822993" lon="0.341569">
        <ele>2.200376</ele>
        <time>2023-09-10T07:55:18.000Z</time>
      </trkpt>
      <trkpt lat="50.822918" lon="0.341709">
        <ele>2.215145</ele>
        <time>2023-09-10T07:55:19.000Z</time>
      </trkpt>
      <trkpt lat="50.822758" lon="0.342357">
        <ele>2.276172</ele>
        <time>2023-09-10T07:55:24.000Z</time>
      </trkpt>
      <trkpt lat="50.822651" lon="0.342545">
        <ele>2.296993</ele>
        <time>2023-09-10T07:55:26.000Z</time>
      </trkpt>
      <trkpt lat="50.82257" lon="0.342618">
        <ele>2.311365</ele>
        <time>2023-09-10T07:55:27.000Z</time>
      </trkpt>
      <trkpt lat="50.822456" lon="0.342665">
        <ele>2.3275</ele>
        <time>2023-09-10T07:55:28.000Z</time>
      </trkpt>
      <trkpt lat="50.82235" lon="0.342714">
        <ele>2.341819</ele>
        <time>2023-09-10T07:55:29.000Z</time>
      </trkpt>
      <trkpt lat="50.82224" lon="0.34279">
        <ele>2.35701</ele>
        <time>2023-09-10T07:55:30.000Z</time>
      </trkpt>
      <trkpt lat="50.822209" lon="0.342877">
        <ele>2.366459</ele>
        <time>2023-09-10T07:55:31.000Z</time>
      </trkpt>
      <trkpt lat="50.822089" lon="0.342977">
        <ele>2.385054</ele>
        <time>2023-09-10T07:55:33.000Z</time>
      </trkpt>
      <trkpt lat="50.821955" lon="0.342957">
        <ele>2.374155</ele>
        <time>2023-09-10T07:55:34.000Z</time>
      </trkpt>
      <trkpt lat="50.82188" lon="0.342915">
        <ele>2.352481</ele>
        <time>2023-09-10T07:55:35.000Z</time>
      </trkpt>
      <trkpt lat="50.821668" lon="0.342979">
        <ele>2.281137</ele>
        <time>2023-09-10T07:55:37.000Z</time>
      </trkpt>
      <trkpt lat="50.821618" lon="0.343036">
        <ele>2.259592</ele>
        <time>2023-09-10T07:55:38.000Z</time>
      </trkpt>
      <trkpt lat="50.821588" lon="0.343116">
        <ele>2.241041</ele>
        <time>2023-09-10T07:55:39.000Z</time>
      </trkpt>
      <trkpt lat="50.82154" lon="0.34339">
        <ele>2.184632</ele>
        <time>2023-09-10T07:55:41.000Z</time>
      </trkpt>
      <trkpt lat="50.821579" lon="0.343845">
        <ele>2.090067</ele>
        <time>2023-09-10T07:55:44.000Z</time>
      </trkpt>
      <trkpt lat="50.821579" lon="0.344046">
        <ele>2.048398</ele>
        <time>2023-09-10T07:55:45.000Z</time>
      </trkpt>
      <trkpt lat="50.820748" lon="0.346187">
        <ele>1.660265</ele>
        <time>2023-09-10T07:56:03.000Z</time>
      </trkpt>
      <trkpt lat="50.82024" lon="0.348216">
        <ele>1.381641</ele>
        <time>2023-09-10T07:56:18.000Z</time>
      </trkpt>
      <trkpt lat="50.819876" lon="0.350335">
        <ele>1.041829</ele>
        <time>2023-09-10T07:56:33.000Z</time>
      </trkpt>
      <trkpt lat="50.819853" lon="0.350777">
        <ele>1.009756</ele>
        <time>2023-09-10T07:56:36.000Z</time>
      </trkpt>
      <trkpt lat="50.819907" lon="0.351249">
        <ele>0.973028</ele>
        <time>2023-09-10T07:56:39.000Z</time>
      </trkpt>
      <trkpt lat="50.820075" lon="0.352264">
        <ele>0.895242</ele>
        <time>2023-09-10T07:56:46.000Z</time>
      </trkpt>
      <trkpt lat="50.820347" lon="0.353649">
        <ele>0.772664</ele>
        <time>2023-09-10T07:56:56.000Z</time>
      </trkpt>
      <trkpt lat="50.82039" lon="0.354543">
        <ele>0.68361</ele>
        <time>2023-09-10T07:57:02.000Z</time>
      </trkpt>
      <trkpt lat="50.820459" lon="0.355104">
        <ele>0.627967</ele>
        <time>2023-09-10T07:57:06.000Z</time>
      </trkpt>
      <trkpt lat="50.82066" lon="0.355986">
        <ele>0.563112</ele>
        <time>2023-09-10T07:57:13.000Z</time>
      </trkpt>
      <trkpt lat="50.8208" lon="0.356897">
        <ele>0.612477</ele>
        <time>2023-09-10T07:57:20.000Z</time>
      </trkpt>
      <trkpt lat="50.820854" lon="0.357127">
        <ele>0.625919</ele>
        <time>2023-09-10T07:57:22.000Z</time>
      </trkpt>
      <trkpt lat="50.821261" lon="0.357728">
        <ele>0.671293</ele>
        <time>2023-09-10T07:57:28.000Z</time>
      </trkpt>
      <trkpt lat="50.821409" lon="0.358086">
        <ele>0.694081</ele>
        <time>2023-09-10T07:57:31.000Z</time>
      </trkpt>
      <trkpt lat="50.821536" lon="0.358621">
        <ele>0.73372</ele>
        <time>2023-09-10T07:57:35.000Z</time>
      </trkpt>
      <trkpt lat="50.821672" lon="0.358993">
        <ele>0.765425</ele>
        <time>2023-09-10T07:57:38.000Z</time>
      </trkpt>
      <trkpt lat="50.821981" lon="0.359722">
        <ele>0.83183</ele>
        <time>2023-09-10T07:57:44.000Z</time>
      </trkpt>
      <trkpt lat="50.822284" lon="0.360348">
        <ele>0.890804</ele>
        <time>2023-09-10T07:57:50.000Z</time>
      </trkpt>
      <trkpt lat="50.822647" lon="0.360916">
        <ele>0.895734</ele>
        <time>2023-09-10T07:57:56.000Z</time>
      </trkpt>
      <trkpt lat="50.823073" lon="0.361417">
        <ele>0.854718</ele>
        <time>2023-09-10T07:58:02.000Z</time>
      </trkpt>
      <trkpt lat="50.823592" lon="0.362353">
        <ele>0.795406</ele>
        <time>2023-09-10T07:58:11.000Z</time>
      </trkpt>
      <trkpt lat="50.823754" lon="0.362719">
        <ele>0.760214</ele>
        <time>2023-09-10T07:58:14.000Z</time>
      </trkpt>
      <trkpt lat="50.823827" lon="0.363001">
        <ele>0.714453</ele>
        <time>2023-09-10T07:58:16.000Z</time>
      </trkpt>
      <trkpt lat="50.823912" lon="0.36412">
        <ele>0.548617</ele>
        <time>2023-09-10T07:58:24.000Z</time>
      </trkpt>
      <trkpt lat="50.823972" lon="0.364716">
        <ele>0.460824</ele>
        <time>2023-09-10T07:58:28.000Z</time>
      </trkpt>
      <trkpt lat="50.82402" lon="0.365044">
        <ele>0.409316</ele>
        <time>2023-09-10T07:58:30.000Z</time>
      </trkpt>
      <trkpt lat="50.824093" lon="0.365308">
        <ele>0.36704</ele>
        <time>2023-09-10T07:58:32.000Z</time>
      </trkpt>
      <trkpt lat="50.824408" lon="0.36614">
        <ele>0.406749</ele>
        <time>2023-09-10T07:58:39.000Z</time>
      </trkpt>
      <trkpt lat="50.824551" lon="0.366583">
        <ele>0.431884</ele>
        <time>2023-09-10T07:58:42.000Z</time>
      </trkpt>
      <trkpt lat="50.824824" lon="0.36776">
        <ele>0.494975</ele>
        <time>2023-09-10T07:58:51.000Z</time>
      </trkpt>
      <trkpt lat="50.825708" lon="0.369734">
        <ele>0.242205</ele>
        <time>2023-09-10T07:59:08.000Z</time>
      </trkpt>
      <trkpt lat="50.826266" lon="0.370726">
        <ele>0.199345</ele>
        <time>2023-09-10T07:59:17.000Z</time>
      </trkpt>
      <trkpt lat="50.82633" lon="0.370943">
        <ele>0.20888</ele>
        <time>2023-09-10T07:59:19.000Z</time>
      </trkpt>
      <trkpt lat="50.826368" lon="0.371102">
        <ele>0.215661</ele>
        <time>2023-09-10T07:59:20.000Z</time>
      </trkpt>
      <trkpt lat="50.82636" lon="0.371299">
        <ele>0.22319</ele>
        <time>2023-09-10T07:59:21.000Z</time>
      </trkpt>
      <trkpt lat="50.826267" lon="0.371554">
        <ele>0.234516</ele>
        <time>2023-09-10T07:59:23.000Z</time>
      </trkpt>
      <trkpt lat="50.825911" lon="0.372407">
        <ele>0.274982</ele>
        <time>2023-09-10T07:59:30.000Z</time>
      </trkpt>
      <trkpt lat="50.825795" lon="0.372758">
        <ele>0.329977</ele>
        <time>2023-09-10T07:59:33.000Z</time>
      </trkpt>
      <trkpt lat="50.825656" lon="0.373433">
        <ele>0.501173</ele>
        <time>2023-09-10T07:59:38.000Z</time>
      </trkpt>
      <trkpt lat="50.825654" lon="0.373829">
        <ele>0.597847</ele>
        <time>2023-09-10T07:59:41.000Z</time>
      </trkpt>
      <trkpt lat="50.825881" lon="0.375443">
        <ele>1.044937</ele>
        <time>2023-09-10T07:59:53.000Z</time>
      </trkpt>
      <trkpt lat="50.825956" lon="0.376085">
        <ele>1.474973</ele>
        <time>2023-09-10T07:59:58.000Z</time>
      </trkpt>
      <trkpt lat="50.825966" lon="0.376842">
        <ele>1.975017</ele>
        <time>2023-09-10T08:00:03.000Z</time>
      </trkpt>
      <trkpt lat="50.825837" lon="0.378801">
        <ele>2.964226</ele>
        <time>2023-09-10T08:00:17.000Z</time>
      </trkpt>
      <trkpt lat="50.825812" lon="0.379905">
        <ele>3.148247</ele>
        <time>2023-09-10T08:00:25.000Z</time>
      </trkpt>
      <trkpt lat="50.825794" lon="0.380256">
        <ele>3.208075</ele>
        <time>2023-09-10T08:00:27.000Z</time>
      </trkpt>
      <trkpt lat="50.826045" lon="0.382793">
        <ele>2.725112</ele>
        <time>2023-09-10T08:00:45.000Z</time>
      </trkpt>
      <trkpt lat="50.826227" lon="0.384104">
        <ele>2.286323</ele>
        <time>2023-09-10T08:00:54.000Z</time>
      </trkpt>
      <trkpt lat="50.82678" lon="0.389116">
        <ele>0.938782</ele>
        <time>2023-09-10T08:01:30.000Z</time>
      </trkpt>
      <trkpt lat="50.826895" lon="0.389502">
        <ele>0.860794</ele>
        <time>2023-09-10T08:01:33.000Z</time>
      </trkpt>
      <trkpt lat="50.827088" lon="0.389804">
        <ele>0.853227</ele>
        <time>2023-09-10T08:01:36.000Z</time>
      </trkpt>
      <trkpt lat="50.827705" lon="0.390743">
        <ele>0.828965</ele>
        <time>2023-09-10T08:01:46.000Z</time>
      </trkpt>
      <trkpt lat="50.828963" lon="0.392543">
        <ele>0.796021</ele>
        <time>2023-09-10T08:02:05.000Z</time>
      </trkpt>
      <trkpt lat="50.82947" lon="0.393311">
        <ele>0.786011</ele>
        <time>2023-09-10T08:02:13.000Z</time>
      </trkpt>
      <trkpt lat="50.829473" lon="0.393323">
        <ele>0.78756</ele>
        <time>2023-09-10T08:02:13.000Z</time>
      </trkpt>
      <trkpt lat="50.829527" lon="0.393411">
        <ele>0.798634</ele>
        <time>2023-09-10T08:02:14.000Z</time>
      </trkpt>
      <trkpt lat="50.829628" lon="0.393573">
        <ele>0.822456</ele>
        <time>2023-09-10T08:02:16.000Z</time>
      </trkpt>
      <trkpt lat="50.829804" lon="0.393921">
        <ele>0.870052</ele>
        <time>2023-09-10T08:02:19.000Z</time>
      </trkpt>
      <trkpt lat="50.829942" lon="0.393947">
        <ele>0.892944</ele>
        <time>2023-09-10T08:02:21.000Z</time>
      </trkpt>
      <trkpt lat="50.829998" lon="0.393984">
        <ele>0.902216</ele>
        <time>2023-09-10T08:02:22.000Z</time>
      </trkpt>
      <trkpt lat="50.830959" lon="0.395437">
        <ele>1.110559</ele>
        <time>2023-09-10T08:02:37.000Z</time>
      </trkpt>
      <trkpt lat="50.831112" lon="0.39576">
        <ele>1.139788</ele>
        <time>2023-09-10T08:02:40.000Z</time>
      </trkpt>
      <trkpt lat="50.831251" lon="0.396117">
        <ele>1.168613</ele>
        <time>2023-09-10T08:02:43.000Z</time>
      </trkpt>
      <trkpt lat="50.83128" lon="0.396297">
        <ele>1.181816</ele>
        <time>2023-09-10T08:02:44.000Z</time>
      </trkpt>
      <trkpt lat="50.831251" lon="0.39652">
        <ele>1.196917</ele>
        <time>2023-09-10T08:02:46.000Z</time>
      </trkpt>
      <trkpt lat="50.831127" lon="0.396987">
        <ele>1.234451</ele>
        <time>2023-09-10T08:02:50.000Z</time>
      </trkpt>
      <trkpt lat="50.831102" lon="0.397747">
        <ele>1.286998</ele>
        <time>2023-09-10T08:02:55.000Z</time>
      </trkpt>
      <trkpt lat="50.830981" lon="0.399129">
        <ele>1.271704</ele>
        <time>2023-09-10T08:03:05.000Z</time>
      </trkpt>
      <trkpt lat="50.830962" lon="0.400081">
        <ele>1.261141</ele>
        <time>2023-09-10T08:03:12.000Z</time>
      </trkpt>
      <trkpt lat="50.830882" lon="0.401184">
        <ele>1.295042</ele>
        <time>2023-09-10T08:03:20.000Z</time>
      </trkpt>
      <trkpt lat="50.830879" lon="0.402113">
        <ele>1.352073</ele>
        <time>2023-09-10T08:03:27.000Z</time>
      </trkpt>
      <trkpt lat="50.830841" lon="0.402444">
        <ele>1.373701</ele>
        <time>2023-09-10T08:03:29.000Z</time>
      </trkpt>
      <trkpt lat="50.830751" lon="0.402796">
        <ele>1.397053</ele>
        <time>2023-09-10T08:03:32.000Z</time>
      </trkpt>
      <trkpt lat="50.830391" lon="0.403681">
        <ele>1.368909</ele>
        <time>2023-09-10T08:03:39.000Z</time>
      </trkpt>
      <trkpt lat="50.830315" lon="0.403882">
        <ele>1.335483</ele>
        <time>2023-09-10T08:03:41.000Z</time>
      </trkpt>
      <trkpt lat="50.830218" lon="0.404525">
        <ele>1.2435</ele>
        <time>2023-09-10T08:03:46.000Z</time>
      </trkpt>
      <trkpt lat="50.830043" lon="0.404875">
        <ele>1.182887</ele>
        <time>2023-09-10T08:03:49.000Z</time>
      </trkpt>
      <trkpt lat="50.829658" lon="0.405465">
        <ele>1.064083</ele>
        <time>2023-09-10T08:03:55.000Z</time>
      </trkpt>
      <trkpt lat="50.829321" lon="0.40612">
        <ele>1.021439</ele>
        <time>2023-09-10T08:04:01.000Z</time>
      </trkpt>
      <trkpt lat="50.829299" lon="0.406162">
        <ele>1.019911</ele>
        <time>2023-09-10T08:04:01.000Z</time>
      </trkpt>
      <trkpt lat="50.829066" lon="0.406785">
        <ele>1.000912</ele>
        <time>2023-09-10T08:04:06.000Z</time>
      </trkpt>
      <trkpt lat="50.829037" lon="0.406941">
        <ele>0.996531</ele>
        <time>2023-09-10T08:04:07.000Z</time>
      </trkpt>
      <trkpt lat="50.829018" lon="0.407117">
        <ele>0.991759</ele>
        <time>2023-09-10T08:04:08.000Z</time>
      </trkpt>
      <trkpt lat="50.829078" lon="0.407459">
        <ele>0.982604</ele>
        <time>2023-09-10T08:04:10.000Z</time>
      </trkpt>
      <trkpt lat="50.829472" lon="0.408842">
        <ele>1.128681</ele>
        <time>2023-09-10T08:04:21.000Z</time>
      </trkpt>
      <trkpt lat="50.830042" lon="0.410491">
        <ele>1.518938</ele>
        <time>2023-09-10T08:04:34.000Z</time>
      </trkpt>
      <trkpt lat="50.830083" lon="0.410689">
        <ele>1.550986</ele>
        <time>2023-09-10T08:04:35.000Z</time>
      </trkpt>
      <trkpt lat="50.830317" lon="0.411968">
        <ele>1.474942</ele>
        <time>2023-09-10T08:04:44.000Z</time>
      </trkpt>
      <trkpt lat="50.830317" lon="0.411964">
        <ele>1.474579</ele>
        <time>2023-09-10T08:04:44.000Z</time>
      </trkpt>
      <trkpt lat="50.830712" lon="0.413863">
        <ele>1.386119</ele>
        <time>2023-09-10T08:04:58.000Z</time>
      </trkpt>
      <trkpt lat="50.830989" lon="0.415341">
        <ele>1.373268</ele>
        <time>2023-09-10T08:05:09.000Z</time>
      </trkpt>
      <trkpt lat="50.831632" lon="0.418377">
        <ele>2.002616</ele>
        <time>2023-09-10T08:05:31.000Z</time>
      </trkpt>
      <trkpt lat="50.831819" lon="0.419431">
        <ele>2.543087</ele>
        <time>2023-09-10T08:05:39.000Z</time>
      </trkpt>
      <trkpt lat="50.832561" lon="0.423327">
        <ele>4.862378</ele>
        <time>2023-09-10T08:06:08.000Z</time>
      </trkpt>
      <trkpt lat="50.832846" lon="0.42456">
        <ele>5.297428</ele>
        <time>2023-09-10T08:06:17.000Z</time>
      </trkpt>
      <trkpt lat="50.833129" lon="0.426317">
        <ele>5.168252</ele>
        <time>2023-09-10T08:06:30.000Z</time>
      </trkpt>
      <trkpt lat="50.833281" lon="0.427136">
        <ele>5.182813</ele>
        <time>2023-09-10T08:06:36.000Z</time>
      </trkpt>
      <trkpt lat="50.833312" lon="0.427287">
        <ele>5.24829</ele>
        <time>2023-09-10T08:06:37.000Z</time>
      </trkpt>
      <trkpt lat="50.833296" lon="0.427474">
        <ele>5.319831</ele>
        <time>2023-09-10T08:06:38.000Z</time>
      </trkpt>
      <trkpt lat="50.832881" lon="0.427352">
        <ele>5.58439</ele>
        <time>2023-09-10T08:06:43.000Z</time>
      </trkpt>
      <trkpt lat="50.832823" lon="0.427354">
        <ele>5.616097</ele>
        <time>2023-09-10T08:06:44.000Z</time>
      </trkpt>
      <trkpt lat="50.832772" lon="0.427363">
        <ele>5.649483</ele>
        <time>2023-09-10T08:06:45.000Z</time>
      </trkpt>
      <trkpt lat="50.832716" lon="0.42742">
        <ele>5.687594</ele>
        <time>2023-09-10T08:06:46.000Z</time>
      </trkpt>
      <trkpt lat="50.832696" lon="0.427562">
        <ele>5.741875</ele>
        <time>2023-09-10T08:06:47.000Z</time>
      </trkpt>
      <trkpt lat="50.832727" lon="0.427703">
        <ele>5.801528</ele>
        <time>2023-09-10T08:06:48.000Z</time>
      </trkpt>
      <trkpt lat="50.832774" lon="0.427966">
        <ele>5.906177</ele>
        <time>2023-09-10T08:06:50.000Z</time>
      </trkpt>
      <trkpt lat="50.832894" lon="0.428604">
        <ele>6.166721</ele>
        <time>2023-09-10T08:06:55.000Z</time>
      </trkpt>
      <trkpt lat="50.832969" lon="0.428826">
        <ele>6.311843</ele>
        <time>2023-09-10T08:06:57.000Z</time>
      </trkpt>
      <trkpt lat="50.833337" lon="0.429303">
        <ele>6.981817</ele>
        <time>2023-09-10T08:07:02.000Z</time>
      </trkpt>
      <trkpt lat="50.833388" lon="0.429445">
        <ele>7.126231</ele>
        <time>2023-09-10T08:07:03.000Z</time>
      </trkpt>
      <trkpt lat="50.833561" lon="0.430292">
        <ele>7.911387</ele>
        <time>2023-09-10T08:07:09.000Z</time>
      </trkpt>
      <trkpt lat="50.833651" lon="0.430727">
        <ele>8.324921</ele>
        <time>2023-09-10T08:07:12.000Z</time>
      </trkpt>
      <trkpt lat="50.833678" lon="0.430917">
        <ele>8.508589</ele>
        <time>2023-09-10T08:07:13.000Z</time>
      </trkpt>
      <trkpt lat="50.833708" lon="0.431066">
        <ele>8.641776</ele>
        <time>2023-09-10T08:07:14.000Z</time>
      </trkpt>
      <trkpt lat="50.83398" lon="0.432437">
        <ele>9.275553</ele>
        <time>2023-09-10T08:07:24.000Z</time>
      </trkpt>
      <trkpt lat="50.83405" lon="0.432814">
        <ele>9.433152</ele>
        <time>2023-09-10T08:07:27.000Z</time>
      </trkpt>
      <trkpt lat="50.835098" lon="0.43811">
        <ele>10.751122</ele>
        <time>2023-09-10T08:08:06.000Z</time>
      </trkpt>
      <trkpt lat="50.836241" lon="0.443908">
        <ele>10.475568</ele>
        <time>2023-09-10T08:08:49.000Z</time>
      </trkpt>
      <trkpt lat="50.836416" lon="0.444757">
        <ele>10.422732</ele>
        <time>2023-09-10T08:08:55.000Z</time>
      </trkpt>
      <trkpt lat="50.836481" lon="0.445144">
        <ele>10.529513</ele>
        <time>2023-09-10T08:08:58.000Z</time>
      </trkpt>
      <trkpt lat="50.836093" lon="0.445191">
        <ele>10.710654</ele>
        <time>2023-09-10T08:09:02.000Z</time>
      </trkpt>
      <trkpt lat="50.835875" lon="0.445319">
        <ele>10.817973</ele>
        <time>2023-09-10T08:09:05.000Z</time>
      </trkpt>
      <trkpt lat="50.835716" lon="0.445534">
        <ele>10.90777</ele>
        <time>2023-09-10T08:09:07.000Z</time>
      </trkpt>
      <trkpt lat="50.835607" lon="0.445743">
        <ele>10.987498</ele>
        <time>2023-09-10T08:09:09.000Z</time>
      </trkpt>
      <trkpt lat="50.835437" lon="0.446217">
        <ele>11.143644</ele>
        <time>2023-09-10T08:09:13.000Z</time>
      </trkpt>
      <trkpt lat="50.835345" lon="0.446682">
        <ele>11.294442</ele>
        <time>2023-09-10T08:09:16.000Z</time>
      </trkpt>
      <trkpt lat="50.835288" lon="0.4472">
        <ele>11.487152</ele>
        <time>2023-09-10T08:09:20.000Z</time>
      </trkpt>
      <trkpt lat="50.835287" lon="0.447779">
        <ele>11.698758</ele>
        <time>2023-09-10T08:09:24.000Z</time>
      </trkpt>
      <trkpt lat="50.835331" lon="0.448401">
        <ele>11.928413</ele>
        <time>2023-09-10T08:09:28.000Z</time>
      </trkpt>
      <trkpt lat="50.835603" lon="0.45062">
        <ele>11.845128</ele>
        <time>2023-09-10T08:09:44.000Z</time>
      </trkpt>
      <trkpt lat="50.835659" lon="0.451325">
        <ele>11.609297</ele>
        <time>2023-09-10T08:09:49.000Z</time>
      </trkpt>
      <trkpt lat="50.835679" lon="0.452192">
        <ele>11.302411</ele>
        <time>2023-09-10T08:09:55.000Z</time>
      </trkpt>
      <trkpt lat="50.835673" lon="0.453517">
        <ele>9.896123</ele>
        <time>2023-09-10T08:10:04.000Z</time>
      </trkpt>
      <trkpt lat="50.835722" lon="0.454895">
        <ele>8.427565</ele>
        <time>2023-09-10T08:10:14.000Z</time>
      </trkpt>
      <trkpt lat="50.835722" lon="0.4549">
        <ele>8.423959</ele>
        <time>2023-09-10T08:10:14.000Z</time>
      </trkpt>
      <trkpt lat="50.835726" lon="0.455465">
        <ele>7.675825</ele>
        <time>2023-09-10T08:10:18.000Z</time>
      </trkpt>
      <trkpt lat="50.83573" lon="0.455577">
        <ele>7.534887</ele>
        <time>2023-09-10T08:10:19.000Z</time>
      </trkpt>
      <trkpt lat="50.835847" lon="0.455723">
        <ele>7.226798</ele>
        <time>2023-09-10T08:10:21.000Z</time>
      </trkpt>
      <trkpt lat="50.835698" lon="0.45619">
        <ele>6.536861</ele>
        <time>2023-09-10T08:10:25.000Z</time>
      </trkpt>
      <trkpt lat="50.835696" lon="0.456407">
        <ele>6.233008</ele>
        <time>2023-09-10T08:10:27.000Z</time>
      </trkpt>
      <trkpt lat="50.835698" lon="0.456654">
        <ele>5.920786</ele>
        <time>2023-09-10T08:10:29.000Z</time>
      </trkpt>
      <trkpt lat="50.835745" lon="0.457147">
        <ele>5.234892</ele>
        <time>2023-09-10T08:10:33.000Z</time>
      </trkpt>
      <trkpt lat="50.835883" lon="0.45863">
        <ele>4.016398</ele>
        <time>2023-09-10T08:10:44.000Z</time>
      </trkpt>
      <trkpt lat="50.83589" lon="0.458856">
        <ele>3.909136</ele>
        <time>2023-09-10T08:10:46.000Z</time>
      </trkpt>
      <trkpt lat="50.83598" lon="0.459744">
        <ele>3.477921</ele>
        <time>2023-09-10T08:10:52.000Z</time>
      </trkpt>
      <trkpt lat="50.836106" lon="0.460958">
        <ele>3.10033</ele>
        <time>2023-09-10T08:11:01.000Z</time>
      </trkpt>
      <trkpt lat="50.836233" lon="0.462457">
        <ele>3.139902</ele>
        <time>2023-09-10T08:11:12.000Z</time>
      </trkpt>
      <trkpt lat="50.836301" lon="0.463014">
        <ele>3.15505</ele>
        <time>2023-09-10T08:11:16.000Z</time>
      </trkpt>
      <trkpt lat="50.836376" lon="0.463892">
        <ele>3.093041</ele>
        <time>2023-09-10T08:11:22.000Z</time>
      </trkpt>
      <trkpt lat="50.836542" lon="0.465678">
        <ele>2.859808</ele>
        <time>2023-09-10T08:11:35.000Z</time>
      </trkpt>
      <trkpt lat="50.83657" lon="0.465825">
        <ele>2.839562</ele>
        <time>2023-09-10T08:11:36.000Z</time>
      </trkpt>
      <trkpt lat="50.836603" lon="0.466202">
        <ele>2.80562</ele>
        <time>2023-09-10T08:11:39.000Z</time>
      </trkpt>
      <trkpt lat="50.836616" lon="0.466328">
        <ele>2.859834</ele>
        <time>2023-09-10T08:11:40.000Z</time>
      </trkpt>
      <trkpt lat="50.836764" lon="0.467914">
        <ele>3.489942</ele>
        <time>2023-09-10T08:11:51.000Z</time>
      </trkpt>
      <trkpt lat="50.836805" lon="0.468367">
        <ele>3.663834</ele>
        <time>2023-09-10T08:11:54.000Z</time>
      </trkpt>
      <trkpt lat="50.836873" lon="0.46881">
        <ele>3.842768</ele>
        <time>2023-09-10T08:11:57.000Z</time>
      </trkpt>
      <trkpt lat="50.83705" lon="0.469354">
        <ele>4.602756</ele>
        <time>2023-09-10T08:12:01.000Z</time>
      </trkpt>
      <trkpt lat="50.837281" lon="0.469761">
        <ele>5.464954</ele>
        <time>2023-09-10T08:12:05.000Z</time>
      </trkpt>
      <trkpt lat="50.83751" lon="0.470049">
        <ele>6.185725</ele>
        <time>2023-09-10T08:12:08.000Z</time>
      </trkpt>
      <trkpt lat="50.837612" lon="0.470151">
        <ele>6.508921</ele>
        <time>2023-09-10T08:12:09.000Z</time>
      </trkpt>
      <trkpt lat="50.837831" lon="0.470167">
        <ele>7.024027</ele>
        <time>2023-09-10T08:12:11.000Z</time>
      </trkpt>
      <trkpt lat="50.837828" lon="0.470143">
        <ele>7.071935</ele>
        <time>2023-09-10T08:12:11.000Z</time>
      </trkpt>
      <trkpt lat="50.837906" lon="0.470125">
        <ele>7.245395</ele>
        <time>2023-09-10T08:12:12.000Z</time>
      </trkpt>
      <trkpt lat="50.83793" lon="0.470143">
        <ele>7.294663</ele>
        <time>2023-09-10T08:12:12.000Z</time>
      </trkpt>
      <trkpt lat="50.83796" lon="0.470206">
        <ele>7.446772</ele>
        <time>2023-09-10T08:12:13.000Z</time>
      </trkpt>
      <trkpt lat="50.837973" lon="0.470304">
        <ele>7.599486</ele>
        <time>2023-09-10T08:12:14.000Z</time>
      </trkpt>
      <trkpt lat="50.837931" lon="0.470406">
        <ele>7.813113</ele>
        <time>2023-09-10T08:12:15.000Z</time>
      </trkpt>
      <trkpt lat="50.837875" lon="0.470698">
        <ele>8.271874</ele>
        <time>2023-09-10T08:12:17.000Z</time>
      </trkpt>
      <trkpt lat="50.837864" lon="0.470726">
        <ele>8.319007</ele>
        <time>2023-09-10T08:12:17.000Z</time>
      </trkpt>
      <trkpt lat="50.83787" lon="0.471086">
        <ele>8.41668606337</ele>
        <time>2023-09-10T08:12:20.000Z</time>
      </trkpt>
      <trkpt lat="50.83787" lon="0.47123">
        <ele>8.45574408642</ele>
        <time>2023-09-10T08:12:21.000Z</time>
      </trkpt>
      <trkpt lat="50.837867" lon="0.471601">
        <ele>8.55638099521</ele>
        <time>2023-09-10T08:12:24.000Z</time>
      </trkpt>
      <trkpt lat="50.837867" lon="0.471744">
        <ele>8.59516778449</ele>
        <time>2023-09-10T08:12:25.000Z</time>
      </trkpt>
      <trkpt lat="50.837866" lon="0.472284">
        <ele>8.74163601164</ele>
        <time>2023-09-10T08:12:29.000Z</time>
      </trkpt>
      <trkpt lat="50.837862" lon="0.472481">
        <ele>8.79509717539</ele>
        <time>2023-09-10T08:12:30.000Z</time>
      </trkpt>
      <trkpt lat="50.83786" lon="0.472632">
        <ele>8.83606286729</ele>
        <time>2023-09-10T08:12:31.000Z</time>
      </trkpt>
      <trkpt lat="50.83785" lon="0.473156">
        <ele>8.97825560003</ele>
        <time>2023-09-10T08:12:35.000Z</time>
      </trkpt>
      <trkpt lat="50.837821" lon="0.473546">
        <ele>9.08476859495</ele>
        <time>2023-09-10T08:12:38.000Z</time>
      </trkpt>
      <trkpt lat="50.83781" lon="0.47378">
        <ele>9.14841355324</ele>
        <time>2023-09-10T08:12:40.000Z</time>
      </trkpt>
      <trkpt lat="50.837786" lon="0.474072">
        <ele>9.22828264</ele>
        <time>2023-09-10T08:12:42.000Z</time>
      </trkpt>
      <trkpt lat="50.83778" lon="0.474218">
        <ele>9.26796696958</ele>
        <time>2023-09-10T08:12:43.000Z</time>
      </trkpt>
      <trkpt lat="50.837805" lon="0.474511">
        <ele>9.34816141825</ele>
        <time>2023-09-10T08:12:45.000Z</time>
      </trkpt>
    </trkseg>
  </trk>
</gpx>

<!--
Performance optimized by W3 Total Cache. Learn more: https://www.boldgrid.com/w3-total-cache/?utm_source=w3tc&utm_medium=footer_comment&utm_campaign=free_plugin

Page Caching using Disk: Enhanced{w3tc_pagecache_reject_reason} 

Served from: www.aquabike.world @ 2026-05-10 19:58:48 by W3 Total Cache
-->